<?xml version="1.0" encoding="UTF-8" standalone="no" ?>
<gpx xmlns="http://www.topografix.com/GPX/1/1" xmlns:xsi="http://www.w3.org/2001/XMLSchema-instance" xsi:schemaLocation="http://www.topografix.com/GPX/1/1 http://www.topografix.com/GPX/1/1/gpx.xsd" version="1.1" creator="VisuGPX - https://www.visugpx.com">
  <metadata>
    <name>Le chemin Urbain V</name>
    <desc><![CDATA[Troisième étape du "Chemin Urbain V" de Barjac à Mende
Relevé "terrain" avec le logiciel "IphiGeNie" sur un iPad mini.
Pour en savoir plus (photos, commentaires, liens divers) voir notre site :
http://www.la-marche-au-long-cours.fr/crbst_120.html]]></desc>
  </metadata>
  <trk>
    <name><![CDATA[Barjac - Mende]]></name>
    <cmt><![CDATA[26 avr. 2016 09:01:53]]></cmt>
    <trkseg>
      <trkpt lat="44.50134" lon="3.41082">
        <ele>805</ele>
        <time>2016-04-26T07:01:54Z</time>
      </trkpt>
      <trkpt lat="44.50125" lon="3.4109">
        <ele>676</ele>
        <time>2016-04-26T07:03:01Z</time>
      </trkpt>
      <trkpt lat="44.50136" lon="3.41096">
        <ele>667</ele>
        <time>2016-04-26T07:03:08Z</time>
      </trkpt>
      <trkpt lat="44.5014" lon="3.4108">
        <ele>666</ele>
        <time>2016-04-26T07:03:10Z</time>
      </trkpt>
      <trkpt lat="44.50136" lon="3.41083">
        <ele>663</ele>
        <time>2016-04-26T07:03:37Z</time>
      </trkpt>
      <trkpt lat="44.50126" lon="3.41085">
        <ele>662</ele>
        <time>2016-04-26T07:05:34Z</time>
      </trkpt>
      <trkpt lat="44.50119" lon="3.41087">
        <ele>662</ele>
        <time>2016-04-26T07:05:52Z</time>
      </trkpt>
      <trkpt lat="44.50112" lon="3.41081">
        <ele>664</ele>
        <time>2016-04-26T07:06:43Z</time>
      </trkpt>
      <trkpt lat="44.50102" lon="3.41079">
        <ele>664</ele>
        <time>2016-04-26T07:06:49Z</time>
      </trkpt>
      <trkpt lat="44.50098" lon="3.41069">
        <ele>663</ele>
        <time>2016-04-26T07:09:10Z</time>
      </trkpt>
      <trkpt lat="44.50103" lon="3.41066">
        <ele>663</ele>
        <time>2016-04-26T07:09:15Z</time>
      </trkpt>
      <trkpt lat="44.50108" lon="3.41065">
        <ele>662</ele>
        <time>2016-04-26T07:09:17Z</time>
      </trkpt>
      <trkpt lat="44.5012" lon="3.41063">
        <ele>663</ele>
        <time>2016-04-26T07:09:23Z</time>
      </trkpt>
      <trkpt lat="44.50142" lon="3.41061">
        <ele>662</ele>
        <time>2016-04-26T07:09:38Z</time>
      </trkpt>
      <trkpt lat="44.50147" lon="3.4106">
        <ele>662</ele>
        <time>2016-04-26T07:09:42Z</time>
      </trkpt>
      <trkpt lat="44.50152" lon="3.41058">
        <ele>662</ele>
        <time>2016-04-26T07:09:46Z</time>
      </trkpt>
      <trkpt lat="44.50157" lon="3.41057">
        <ele>663</ele>
        <time>2016-04-26T07:09:50Z</time>
      </trkpt>
      <trkpt lat="44.50162" lon="3.41056">
        <ele>663</ele>
        <time>2016-04-26T07:09:54Z</time>
      </trkpt>
      <trkpt lat="44.50166" lon="3.41056">
        <ele>663</ele>
        <time>2016-04-26T07:09:58Z</time>
      </trkpt>
      <trkpt lat="44.5017" lon="3.41052">
        <ele>663</ele>
        <time>2016-04-26T07:10:02Z</time>
      </trkpt>
      <trkpt lat="44.50175" lon="3.41048">
        <ele>664</ele>
        <time>2016-04-26T07:10:07Z</time>
      </trkpt>
      <trkpt lat="44.5018" lon="3.4105">
        <ele>664</ele>
        <time>2016-04-26T07:10:11Z</time>
      </trkpt>
      <trkpt lat="44.50186" lon="3.41052">
        <ele>663</ele>
        <time>2016-04-26T07:10:15Z</time>
      </trkpt>
      <trkpt lat="44.50195" lon="3.41057">
        <ele>664</ele>
        <time>2016-04-26T07:10:23Z</time>
      </trkpt>
      <trkpt lat="44.50216" lon="3.41061">
        <ele>663</ele>
        <time>2016-04-26T07:10:37Z</time>
      </trkpt>
      <trkpt lat="44.50238" lon="3.41064">
        <ele>660</ele>
        <time>2016-04-26T07:10:53Z</time>
      </trkpt>
      <trkpt lat="44.50243" lon="3.41063">
        <ele>660</ele>
        <time>2016-04-26T07:10:57Z</time>
      </trkpt>
      <trkpt lat="44.50257" lon="3.41066">
        <ele>661</ele>
        <time>2016-04-26T07:11:09Z</time>
      </trkpt>
      <trkpt lat="44.50262" lon="3.41065">
        <ele>661</ele>
        <time>2016-04-26T07:11:14Z</time>
      </trkpt>
      <trkpt lat="44.50268" lon="3.41067">
        <ele>661</ele>
        <time>2016-04-26T07:11:19Z</time>
      </trkpt>
      <trkpt lat="44.50293" lon="3.41064">
        <ele>663</ele>
        <time>2016-04-26T07:11:39Z</time>
      </trkpt>
      <trkpt lat="44.50303" lon="3.41067">
        <ele>663</ele>
        <time>2016-04-26T07:11:47Z</time>
      </trkpt>
      <trkpt lat="44.50313" lon="3.41069">
        <ele>664</ele>
        <time>2016-04-26T07:11:55Z</time>
      </trkpt>
      <trkpt lat="44.50318" lon="3.4107">
        <ele>664</ele>
        <time>2016-04-26T07:11:59Z</time>
      </trkpt>
      <trkpt lat="44.50324" lon="3.41069">
        <ele>664</ele>
        <time>2016-04-26T07:12:04Z</time>
      </trkpt>
      <trkpt lat="44.50328" lon="3.41069">
        <ele>664</ele>
        <time>2016-04-26T07:12:08Z</time>
      </trkpt>
      <trkpt lat="44.50334" lon="3.41069">
        <ele>664</ele>
        <time>2016-04-26T07:12:12Z</time>
      </trkpt>
      <trkpt lat="44.50354" lon="3.41068">
        <ele>664</ele>
        <time>2016-04-26T07:12:28Z</time>
      </trkpt>
      <trkpt lat="44.50357" lon="3.41063">
        <ele>664</ele>
        <time>2016-04-26T07:12:32Z</time>
      </trkpt>
      <trkpt lat="44.50363" lon="3.4106">
        <ele>663</ele>
        <time>2016-04-26T07:12:37Z</time>
      </trkpt>
      <trkpt lat="44.50367" lon="3.41059">
        <ele>663</ele>
        <time>2016-04-26T07:12:41Z</time>
      </trkpt>
      <trkpt lat="44.50377" lon="3.41057">
        <ele>664</ele>
        <time>2016-04-26T07:12:50Z</time>
      </trkpt>
      <trkpt lat="44.50382" lon="3.41055">
        <ele>663</ele>
        <time>2016-04-26T07:12:55Z</time>
      </trkpt>
      <trkpt lat="44.50391" lon="3.41049">
        <ele>663</ele>
        <time>2016-04-26T07:13:04Z</time>
      </trkpt>
      <trkpt lat="44.50402" lon="3.41046">
        <ele>664</ele>
        <time>2016-04-26T07:13:14Z</time>
      </trkpt>
      <trkpt lat="44.50406" lon="3.41047">
        <ele>664</ele>
        <time>2016-04-26T07:13:18Z</time>
      </trkpt>
      <trkpt lat="44.50425" lon="3.41043">
        <ele>664</ele>
        <time>2016-04-26T07:13:34Z</time>
      </trkpt>
      <trkpt lat="44.5043" lon="3.4104">
        <ele>665</ele>
        <time>2016-04-26T07:13:39Z</time>
      </trkpt>
      <trkpt lat="44.5044" lon="3.4104">
        <ele>664</ele>
        <time>2016-04-26T07:13:45Z</time>
      </trkpt>
      <trkpt lat="44.50451" lon="3.41036">
        <ele>665</ele>
        <time>2016-04-26T07:13:54Z</time>
      </trkpt>
      <trkpt lat="44.50454" lon="3.4104">
        <ele>666</ele>
        <time>2016-04-26T07:13:58Z</time>
      </trkpt>
      <trkpt lat="44.50467" lon="3.41053">
        <ele>667</ele>
        <time>2016-04-26T07:14:11Z</time>
      </trkpt>
      <trkpt lat="44.50472" lon="3.41055">
        <ele>667</ele>
        <time>2016-04-26T07:14:15Z</time>
      </trkpt>
      <trkpt lat="44.50482" lon="3.41058">
        <ele>667</ele>
        <time>2016-04-26T07:14:23Z</time>
      </trkpt>
      <trkpt lat="44.50487" lon="3.41058">
        <ele>668</ele>
        <time>2016-04-26T07:14:27Z</time>
      </trkpt>
      <trkpt lat="44.50493" lon="3.41058">
        <ele>668</ele>
        <time>2016-04-26T07:14:31Z</time>
      </trkpt>
      <trkpt lat="44.50518" lon="3.41061">
        <ele>672</ele>
        <time>2016-04-26T07:14:54Z</time>
      </trkpt>
      <trkpt lat="44.50522" lon="3.41059">
        <ele>672</ele>
        <time>2016-04-26T07:14:58Z</time>
      </trkpt>
      <trkpt lat="44.50527" lon="3.41057">
        <ele>672</ele>
        <time>2016-04-26T07:15:03Z</time>
      </trkpt>
      <trkpt lat="44.50536" lon="3.41056">
        <ele>672</ele>
        <time>2016-04-26T07:15:11Z</time>
      </trkpt>
      <trkpt lat="44.50546" lon="3.41057">
        <ele>670</ele>
        <time>2016-04-26T07:15:20Z</time>
      </trkpt>
      <trkpt lat="44.50555" lon="3.4106">
        <ele>670</ele>
        <time>2016-04-26T07:15:30Z</time>
      </trkpt>
      <trkpt lat="44.50575" lon="3.41067">
        <ele>673</ele>
        <time>2016-04-26T07:15:47Z</time>
      </trkpt>
      <trkpt lat="44.50579" lon="3.41069">
        <ele>672</ele>
        <time>2016-04-26T07:15:51Z</time>
      </trkpt>
      <trkpt lat="44.50593" lon="3.41078">
        <ele>672</ele>
        <time>2016-04-26T07:16:03Z</time>
      </trkpt>
      <trkpt lat="44.50598" lon="3.41082">
        <ele>672</ele>
        <time>2016-04-26T07:16:07Z</time>
      </trkpt>
      <trkpt lat="44.50602" lon="3.41086">
        <ele>672</ele>
        <time>2016-04-26T07:16:11Z</time>
      </trkpt>
      <trkpt lat="44.50616" lon="3.41103">
        <ele>675</ele>
        <time>2016-04-26T07:16:28Z</time>
      </trkpt>
      <trkpt lat="44.50621" lon="3.41106">
        <ele>675</ele>
        <time>2016-04-26T07:16:32Z</time>
      </trkpt>
      <trkpt lat="44.50625" lon="3.41109">
        <ele>676</ele>
        <time>2016-04-26T07:16:36Z</time>
      </trkpt>
      <trkpt lat="44.50628" lon="3.41114">
        <ele>676</ele>
        <time>2016-04-26T07:16:40Z</time>
      </trkpt>
      <trkpt lat="44.50634" lon="3.41133">
        <ele>679</ele>
        <time>2016-04-26T07:16:52Z</time>
      </trkpt>
      <trkpt lat="44.50637" lon="3.41137">
        <ele>680</ele>
        <time>2016-04-26T07:16:56Z</time>
      </trkpt>
      <trkpt lat="44.50647" lon="3.41153">
        <ele>678</ele>
        <time>2016-04-26T07:17:08Z</time>
      </trkpt>
      <trkpt lat="44.5065" lon="3.4116">
        <ele>679</ele>
        <time>2016-04-26T07:17:13Z</time>
      </trkpt>
      <trkpt lat="44.50654" lon="3.41164">
        <ele>680</ele>
        <time>2016-04-26T07:17:17Z</time>
      </trkpt>
      <trkpt lat="44.50657" lon="3.41169">
        <ele>680</ele>
        <time>2016-04-26T07:17:21Z</time>
      </trkpt>
      <trkpt lat="44.50662" lon="3.41181">
        <ele>682</ele>
        <time>2016-04-26T07:17:29Z</time>
      </trkpt>
      <trkpt lat="44.50669" lon="3.41192">
        <ele>681</ele>
        <time>2016-04-26T07:17:37Z</time>
      </trkpt>
      <trkpt lat="44.50672" lon="3.41197">
        <ele>680</ele>
        <time>2016-04-26T07:17:41Z</time>
      </trkpt>
      <trkpt lat="44.50681" lon="3.41202">
        <ele>681</ele>
        <time>2016-04-26T07:17:51Z</time>
      </trkpt>
      <trkpt lat="44.50685" lon="3.41205">
        <ele>680</ele>
        <time>2016-04-26T07:17:55Z</time>
      </trkpt>
      <trkpt lat="44.5069" lon="3.41209">
        <ele>680</ele>
        <time>2016-04-26T07:18:00Z</time>
      </trkpt>
      <trkpt lat="44.50706" lon="3.41223">
        <ele>682</ele>
        <time>2016-04-26T07:18:20Z</time>
      </trkpt>
      <trkpt lat="44.50718" lon="3.41239">
        <ele>681</ele>
        <time>2016-04-26T07:18:32Z</time>
      </trkpt>
      <trkpt lat="44.50722" lon="3.41244">
        <ele>682</ele>
        <time>2016-04-26T07:18:37Z</time>
      </trkpt>
      <trkpt lat="44.50727" lon="3.41248">
        <ele>682</ele>
        <time>2016-04-26T07:18:42Z</time>
      </trkpt>
      <trkpt lat="44.50732" lon="3.41251">
        <ele>682</ele>
        <time>2016-04-26T07:18:46Z</time>
      </trkpt>
      <trkpt lat="44.50736" lon="3.41254">
        <ele>682</ele>
        <time>2016-04-26T07:18:50Z</time>
      </trkpt>
      <trkpt lat="44.50741" lon="3.41257">
        <ele>683</ele>
        <time>2016-04-26T07:18:54Z</time>
      </trkpt>
      <trkpt lat="44.50746" lon="3.41261">
        <ele>683</ele>
        <time>2016-04-26T07:18:58Z</time>
      </trkpt>
      <trkpt lat="44.5075" lon="3.41265">
        <ele>682</ele>
        <time>2016-04-26T07:19:02Z</time>
      </trkpt>
      <trkpt lat="44.5076" lon="3.41271">
        <ele>682</ele>
        <time>2016-04-26T07:19:10Z</time>
      </trkpt>
      <trkpt lat="44.50797" lon="3.41296">
        <ele>679</ele>
        <time>2016-04-26T07:19:42Z</time>
      </trkpt>
      <trkpt lat="44.50802" lon="3.41299">
        <ele>679</ele>
        <time>2016-04-26T07:19:46Z</time>
      </trkpt>
      <trkpt lat="44.50828" lon="3.4132">
        <ele>679</ele>
        <time>2016-04-26T07:20:11Z</time>
      </trkpt>
      <trkpt lat="44.50843" lon="3.41329">
        <ele>678</ele>
        <time>2016-04-26T07:20:23Z</time>
      </trkpt>
      <trkpt lat="44.50848" lon="3.41332">
        <ele>678</ele>
        <time>2016-04-26T07:20:28Z</time>
      </trkpt>
      <trkpt lat="44.50852" lon="3.41337">
        <ele>679</ele>
        <time>2016-04-26T07:20:33Z</time>
      </trkpt>
      <trkpt lat="44.50857" lon="3.4134">
        <ele>680</ele>
        <time>2016-04-26T07:20:38Z</time>
      </trkpt>
      <trkpt lat="44.50866" lon="3.41344">
        <ele>680</ele>
        <time>2016-04-26T07:20:46Z</time>
      </trkpt>
      <trkpt lat="44.50873" lon="3.41353">
        <ele>681</ele>
        <time>2016-04-26T07:20:56Z</time>
      </trkpt>
      <trkpt lat="44.50898" lon="3.4137">
        <ele>683</ele>
        <time>2016-04-26T07:21:17Z</time>
      </trkpt>
      <trkpt lat="44.5091" lon="3.41382">
        <ele>686</ele>
        <time>2016-04-26T07:21:30Z</time>
      </trkpt>
      <trkpt lat="44.50914" lon="3.41385">
        <ele>686</ele>
        <time>2016-04-26T07:21:34Z</time>
      </trkpt>
      <trkpt lat="44.50941" lon="3.41404">
        <ele>680</ele>
        <time>2016-04-26T07:21:53Z</time>
      </trkpt>
      <trkpt lat="44.5095" lon="3.4141">
        <ele>680</ele>
        <time>2016-04-26T07:22:01Z</time>
      </trkpt>
      <trkpt lat="44.50955" lon="3.41412">
        <ele>681</ele>
        <time>2016-04-26T07:22:05Z</time>
      </trkpt>
      <trkpt lat="44.50959" lon="3.41415">
        <ele>681</ele>
        <time>2016-04-26T07:23:47Z</time>
      </trkpt>
      <trkpt lat="44.50961" lon="3.41421">
        <ele>682</ele>
        <time>2016-04-26T07:23:53Z</time>
      </trkpt>
      <trkpt lat="44.50964" lon="3.41426">
        <ele>683</ele>
        <time>2016-04-26T07:23:58Z</time>
      </trkpt>
      <trkpt lat="44.50979" lon="3.4143">
        <ele>685</ele>
        <time>2016-04-26T07:24:12Z</time>
      </trkpt>
      <trkpt lat="44.50985" lon="3.41432">
        <ele>685</ele>
        <time>2016-04-26T07:24:16Z</time>
      </trkpt>
      <trkpt lat="44.50998" lon="3.41438">
        <ele>684</ele>
        <time>2016-04-26T07:24:25Z</time>
      </trkpt>
      <trkpt lat="44.51004" lon="3.41439">
        <ele>684</ele>
        <time>2016-04-26T07:24:29Z</time>
      </trkpt>
      <trkpt lat="44.51009" lon="3.4144">
        <ele>684</ele>
        <time>2016-04-26T07:24:33Z</time>
      </trkpt>
      <trkpt lat="44.51014" lon="3.41439">
        <ele>684</ele>
        <time>2016-04-26T07:24:37Z</time>
      </trkpt>
      <trkpt lat="44.51019" lon="3.41438">
        <ele>684</ele>
        <time>2016-04-26T07:24:41Z</time>
      </trkpt>
      <trkpt lat="44.51024" lon="3.41442">
        <ele>684</ele>
        <time>2016-04-26T07:24:45Z</time>
      </trkpt>
      <trkpt lat="44.51023" lon="3.4145">
        <ele>684</ele>
        <time>2016-04-26T07:24:49Z</time>
      </trkpt>
      <trkpt lat="44.51018" lon="3.41461">
        <ele>685</ele>
        <time>2016-04-26T07:24:57Z</time>
      </trkpt>
      <trkpt lat="44.51018" lon="3.41468">
        <ele>686</ele>
        <time>2016-04-26T07:25:02Z</time>
      </trkpt>
      <trkpt lat="44.51021" lon="3.41474">
        <ele>687</ele>
        <time>2016-04-26T07:25:06Z</time>
      </trkpt>
      <trkpt lat="44.51029" lon="3.4148">
        <ele>689</ele>
        <time>2016-04-26T07:25:14Z</time>
      </trkpt>
      <trkpt lat="44.51034" lon="3.41482">
        <ele>690</ele>
        <time>2016-04-26T07:25:18Z</time>
      </trkpt>
      <trkpt lat="44.51041" lon="3.41489">
        <ele>690</ele>
        <time>2016-04-26T07:25:26Z</time>
      </trkpt>
      <trkpt lat="44.51075" lon="3.415">
        <ele>695</ele>
        <time>2016-04-26T07:25:59Z</time>
      </trkpt>
      <trkpt lat="44.51094" lon="3.4151">
        <ele>696</ele>
        <time>2016-04-26T07:26:19Z</time>
      </trkpt>
      <trkpt lat="44.51098" lon="3.41514">
        <ele>698</ele>
        <time>2016-04-26T07:26:27Z</time>
      </trkpt>
      <trkpt lat="44.51102" lon="3.41517">
        <ele>698</ele>
        <time>2016-04-26T07:26:33Z</time>
      </trkpt>
      <trkpt lat="44.51106" lon="3.4152">
        <ele>698</ele>
        <time>2016-04-26T07:26:38Z</time>
      </trkpt>
      <trkpt lat="44.5111" lon="3.41525">
        <ele>699</ele>
        <time>2016-04-26T07:26:44Z</time>
      </trkpt>
      <trkpt lat="44.51115" lon="3.41527">
        <ele>700</ele>
        <time>2016-04-26T07:26:50Z</time>
      </trkpt>
      <trkpt lat="44.51117" lon="3.41533">
        <ele>701</ele>
        <time>2016-04-26T07:26:56Z</time>
      </trkpt>
      <trkpt lat="44.51144" lon="3.41552">
        <ele>708</ele>
        <time>2016-04-26T07:27:30Z</time>
      </trkpt>
      <trkpt lat="44.51148" lon="3.41556">
        <ele>709</ele>
        <time>2016-04-26T07:27:37Z</time>
      </trkpt>
      <trkpt lat="44.51156" lon="3.41563">
        <ele>708</ele>
        <time>2016-04-26T07:27:51Z</time>
      </trkpt>
      <trkpt lat="44.51159" lon="3.41569">
        <ele>708</ele>
        <time>2016-04-26T07:27:57Z</time>
      </trkpt>
      <trkpt lat="44.51167" lon="3.41594">
        <ele>712</ele>
        <time>2016-04-26T07:28:22Z</time>
      </trkpt>
      <trkpt lat="44.51161" lon="3.41614">
        <ele>715</ele>
        <time>2016-04-26T07:28:39Z</time>
      </trkpt>
      <trkpt lat="44.51154" lon="3.41623">
        <ele>717</ele>
        <time>2016-04-26T07:28:49Z</time>
      </trkpt>
      <trkpt lat="44.51148" lon="3.41635">
        <ele>717</ele>
        <time>2016-04-26T07:29:01Z</time>
      </trkpt>
      <trkpt lat="44.51148" lon="3.41642">
        <ele>718</ele>
        <time>2016-04-26T07:29:06Z</time>
      </trkpt>
      <trkpt lat="44.51152" lon="3.41649">
        <ele>719</ele>
        <time>2016-04-26T07:29:11Z</time>
      </trkpt>
      <trkpt lat="44.51156" lon="3.41653">
        <ele>720</ele>
        <time>2016-04-26T07:29:16Z</time>
      </trkpt>
      <trkpt lat="44.51163" lon="3.41663">
        <ele>720</ele>
        <time>2016-04-26T07:29:27Z</time>
      </trkpt>
      <trkpt lat="44.51166" lon="3.41667">
        <ele>720</ele>
        <time>2016-04-26T07:29:33Z</time>
      </trkpt>
      <trkpt lat="44.51169" lon="3.41672">
        <ele>721</ele>
        <time>2016-04-26T07:29:39Z</time>
      </trkpt>
      <trkpt lat="44.51173" lon="3.41678">
        <ele>721</ele>
        <time>2016-04-26T07:29:45Z</time>
      </trkpt>
      <trkpt lat="44.51175" lon="3.41684">
        <ele>721</ele>
        <time>2016-04-26T07:29:52Z</time>
      </trkpt>
      <trkpt lat="44.51196" lon="3.41701">
        <ele>724</ele>
        <time>2016-04-26T07:30:23Z</time>
      </trkpt>
      <trkpt lat="44.51219" lon="3.41714">
        <ele>729</ele>
        <time>2016-04-26T07:30:52Z</time>
      </trkpt>
      <trkpt lat="44.51232" lon="3.41721">
        <ele>730</ele>
        <time>2016-04-26T07:31:08Z</time>
      </trkpt>
      <trkpt lat="44.51236" lon="3.41725">
        <ele>730</ele>
        <time>2016-04-26T07:31:14Z</time>
      </trkpt>
      <trkpt lat="44.51241" lon="3.41727">
        <ele>730</ele>
        <time>2016-04-26T07:31:20Z</time>
      </trkpt>
      <trkpt lat="44.51246" lon="3.41727">
        <ele>730</ele>
        <time>2016-04-26T07:31:24Z</time>
      </trkpt>
      <trkpt lat="44.5125" lon="3.4173">
        <ele>732</ele>
        <time>2016-04-26T07:31:30Z</time>
      </trkpt>
      <trkpt lat="44.51256" lon="3.41732">
        <ele>732</ele>
        <time>2016-04-26T07:31:36Z</time>
      </trkpt>
      <trkpt lat="44.51261" lon="3.41734">
        <ele>731</ele>
        <time>2016-04-26T07:31:40Z</time>
      </trkpt>
      <trkpt lat="44.51265" lon="3.41736">
        <ele>731</ele>
        <time>2016-04-26T07:31:45Z</time>
      </trkpt>
      <trkpt lat="44.51274" lon="3.41741">
        <ele>731</ele>
        <time>2016-04-26T07:31:54Z</time>
      </trkpt>
      <trkpt lat="44.51297" lon="3.41768">
        <ele>736</ele>
        <time>2016-04-26T07:32:24Z</time>
      </trkpt>
      <trkpt lat="44.51301" lon="3.41771">
        <ele>736</ele>
        <time>2016-04-26T07:32:29Z</time>
      </trkpt>
      <trkpt lat="44.51313" lon="3.41783">
        <ele>738</ele>
        <time>2016-04-26T07:32:45Z</time>
      </trkpt>
      <trkpt lat="44.51318" lon="3.41786">
        <ele>738</ele>
        <time>2016-04-26T07:32:50Z</time>
      </trkpt>
      <trkpt lat="44.51322" lon="3.41791">
        <ele>738</ele>
        <time>2016-04-26T07:32:55Z</time>
      </trkpt>
      <trkpt lat="44.51334" lon="3.41804">
        <ele>739</ele>
        <time>2016-04-26T07:33:11Z</time>
      </trkpt>
      <trkpt lat="44.51353" lon="3.41834">
        <ele>740</ele>
        <time>2016-04-26T07:33:37Z</time>
      </trkpt>
      <trkpt lat="44.51362" lon="3.41852">
        <ele>741</ele>
        <time>2016-04-26T07:33:52Z</time>
      </trkpt>
      <trkpt lat="44.51367" lon="3.41866">
        <ele>741</ele>
        <time>2016-04-26T07:34:02Z</time>
      </trkpt>
      <trkpt lat="44.5137" lon="3.41878">
        <ele>742</ele>
        <time>2016-04-26T07:34:11Z</time>
      </trkpt>
      <trkpt lat="44.51371" lon="3.41892">
        <ele>743</ele>
        <time>2016-04-26T07:34:19Z</time>
      </trkpt>
      <trkpt lat="44.51373" lon="3.41898">
        <ele>743</ele>
        <time>2016-04-26T07:34:23Z</time>
      </trkpt>
      <trkpt lat="44.51376" lon="3.41911">
        <ele>743</ele>
        <time>2016-04-26T07:34:32Z</time>
      </trkpt>
      <trkpt lat="44.51377" lon="3.41918">
        <ele>743</ele>
        <time>2016-04-26T07:34:36Z</time>
      </trkpt>
      <trkpt lat="44.51386" lon="3.41936">
        <ele>745</ele>
        <time>2016-04-26T07:34:50Z</time>
      </trkpt>
      <trkpt lat="44.51388" lon="3.41941">
        <ele>745</ele>
        <time>2016-04-26T07:34:54Z</time>
      </trkpt>
      <trkpt lat="44.51391" lon="3.41947">
        <ele>746</ele>
        <time>2016-04-26T07:34:59Z</time>
      </trkpt>
      <trkpt lat="44.51395" lon="3.41961">
        <ele>747</ele>
        <time>2016-04-26T07:35:09Z</time>
      </trkpt>
      <trkpt lat="44.51395" lon="3.41982">
        <ele>749</ele>
        <time>2016-04-26T07:35:22Z</time>
      </trkpt>
      <trkpt lat="44.51395" lon="3.41989">
        <ele>749</ele>
        <time>2016-04-26T07:35:26Z</time>
      </trkpt>
      <trkpt lat="44.51396" lon="3.41996">
        <ele>748</ele>
        <time>2016-04-26T07:35:31Z</time>
      </trkpt>
      <trkpt lat="44.51396" lon="3.42003">
        <ele>748</ele>
        <time>2016-04-26T07:35:36Z</time>
      </trkpt>
      <trkpt lat="44.51395" lon="3.4201">
        <ele>747</ele>
        <time>2016-04-26T07:35:41Z</time>
      </trkpt>
      <trkpt lat="44.51395" lon="3.42016">
        <ele>746</ele>
        <time>2016-04-26T07:35:45Z</time>
      </trkpt>
      <trkpt lat="44.51393" lon="3.42029">
        <ele>745</ele>
        <time>2016-04-26T07:35:53Z</time>
      </trkpt>
      <trkpt lat="44.51393" lon="3.42036">
        <ele>745</ele>
        <time>2016-04-26T07:35:57Z</time>
      </trkpt>
      <trkpt lat="44.51391" lon="3.42042">
        <ele>746</ele>
        <time>2016-04-26T07:36:01Z</time>
      </trkpt>
      <trkpt lat="44.51391" lon="3.42049">
        <ele>746</ele>
        <time>2016-04-26T07:36:05Z</time>
      </trkpt>
      <trkpt lat="44.51389" lon="3.42055">
        <ele>745</ele>
        <time>2016-04-26T07:36:09Z</time>
      </trkpt>
      <trkpt lat="44.51389" lon="3.42064">
        <ele>744</ele>
        <time>2016-04-26T07:36:15Z</time>
      </trkpt>
      <trkpt lat="44.51396" lon="3.42089">
        <ele>741</ele>
        <time>2016-04-26T07:36:31Z</time>
      </trkpt>
      <trkpt lat="44.51402" lon="3.421">
        <ele>742</ele>
        <time>2016-04-26T07:36:39Z</time>
      </trkpt>
      <trkpt lat="44.51405" lon="3.42113">
        <ele>741</ele>
        <time>2016-04-26T07:36:48Z</time>
      </trkpt>
      <trkpt lat="44.51408" lon="3.4212">
        <ele>742</ele>
        <time>2016-04-26T07:36:53Z</time>
      </trkpt>
      <trkpt lat="44.51421" lon="3.4215">
        <ele>742</ele>
        <time>2016-04-26T07:37:13Z</time>
      </trkpt>
      <trkpt lat="44.51424" lon="3.42155">
        <ele>741</ele>
        <time>2016-04-26T07:37:17Z</time>
      </trkpt>
      <trkpt lat="44.51426" lon="3.42162">
        <ele>741</ele>
        <time>2016-04-26T07:37:22Z</time>
      </trkpt>
      <trkpt lat="44.51429" lon="3.42169">
        <ele>742</ele>
        <time>2016-04-26T07:37:27Z</time>
      </trkpt>
      <trkpt lat="44.5143" lon="3.42175">
        <ele>742</ele>
        <time>2016-04-26T07:37:31Z</time>
      </trkpt>
      <trkpt lat="44.51435" lon="3.42187">
        <ele>742</ele>
        <time>2016-04-26T07:37:41Z</time>
      </trkpt>
      <trkpt lat="44.51438" lon="3.42193">
        <ele>741</ele>
        <time>2016-04-26T07:37:45Z</time>
      </trkpt>
      <trkpt lat="44.51448" lon="3.42218">
        <ele>740</ele>
        <time>2016-04-26T07:38:01Z</time>
      </trkpt>
      <trkpt lat="44.51454" lon="3.4223">
        <ele>740</ele>
        <time>2016-04-26T07:38:09Z</time>
      </trkpt>
      <trkpt lat="44.51459" lon="3.42243">
        <ele>740</ele>
        <time>2016-04-26T07:38:18Z</time>
      </trkpt>
      <trkpt lat="44.51461" lon="3.42249">
        <ele>740</ele>
        <time>2016-04-26T07:38:22Z</time>
      </trkpt>
      <trkpt lat="44.51464" lon="3.42255">
        <ele>740</ele>
        <time>2016-04-26T07:38:26Z</time>
      </trkpt>
      <trkpt lat="44.51475" lon="3.42278">
        <ele>739</ele>
        <time>2016-04-26T07:38:43Z</time>
      </trkpt>
      <trkpt lat="44.51478" lon="3.42285">
        <ele>740</ele>
        <time>2016-04-26T07:38:48Z</time>
      </trkpt>
      <trkpt lat="44.51483" lon="3.42299">
        <ele>741</ele>
        <time>2016-04-26T07:39:07Z</time>
      </trkpt>
      <trkpt lat="44.51487" lon="3.42305">
        <ele>741</ele>
        <time>2016-04-26T07:39:11Z</time>
      </trkpt>
      <trkpt lat="44.51496" lon="3.42314">
        <ele>741</ele>
        <time>2016-04-26T07:39:21Z</time>
      </trkpt>
      <trkpt lat="44.51499" lon="3.42318">
        <ele>742</ele>
        <time>2016-04-26T07:39:26Z</time>
      </trkpt>
      <trkpt lat="44.51503" lon="3.42323">
        <ele>741</ele>
        <time>2016-04-26T07:39:31Z</time>
      </trkpt>
      <trkpt lat="44.51515" lon="3.42344">
        <ele>745</ele>
        <time>2016-04-26T07:39:49Z</time>
      </trkpt>
      <trkpt lat="44.51519" lon="3.42349">
        <ele>745</ele>
        <time>2016-04-26T07:39:53Z</time>
      </trkpt>
      <trkpt lat="44.51526" lon="3.42359">
        <ele>744</ele>
        <time>2016-04-26T07:40:02Z</time>
      </trkpt>
      <trkpt lat="44.51533" lon="3.42369">
        <ele>745</ele>
        <time>2016-04-26T07:40:10Z</time>
      </trkpt>
      <trkpt lat="44.51535" lon="3.42374">
        <ele>745</ele>
        <time>2016-04-26T07:40:14Z</time>
      </trkpt>
      <trkpt lat="44.51543" lon="3.42392">
        <ele>744</ele>
        <time>2016-04-26T07:40:26Z</time>
      </trkpt>
      <trkpt lat="44.51547" lon="3.42398">
        <ele>744</ele>
        <time>2016-04-26T07:40:30Z</time>
      </trkpt>
      <trkpt lat="44.51549" lon="3.42405">
        <ele>745</ele>
        <time>2016-04-26T07:40:34Z</time>
      </trkpt>
      <trkpt lat="44.51554" lon="3.42425">
        <ele>746</ele>
        <time>2016-04-26T07:40:47Z</time>
      </trkpt>
      <trkpt lat="44.51555" lon="3.42431">
        <ele>746</ele>
        <time>2016-04-26T07:40:52Z</time>
      </trkpt>
      <trkpt lat="44.51553" lon="3.42445">
        <ele>747</ele>
        <time>2016-04-26T07:41:02Z</time>
      </trkpt>
      <trkpt lat="44.51556" lon="3.42466">
        <ele>749</ele>
        <time>2016-04-26T07:41:18Z</time>
      </trkpt>
      <trkpt lat="44.51547" lon="3.42504">
        <ele>756</ele>
        <time>2016-04-26T07:41:55Z</time>
      </trkpt>
      <trkpt lat="44.51543" lon="3.42508">
        <ele>757</ele>
        <time>2016-04-26T07:42:00Z</time>
      </trkpt>
      <trkpt lat="44.51531" lon="3.42537">
        <ele>760</ele>
        <time>2016-04-26T07:42:35Z</time>
      </trkpt>
      <trkpt lat="44.51528" lon="3.42543">
        <ele>761</ele>
        <time>2016-04-26T07:42:43Z</time>
      </trkpt>
      <trkpt lat="44.51528" lon="3.4255">
        <ele>762</ele>
        <time>2016-04-26T07:42:49Z</time>
      </trkpt>
      <trkpt lat="44.51526" lon="3.42556">
        <ele>762</ele>
        <time>2016-04-26T07:42:55Z</time>
      </trkpt>
      <trkpt lat="44.51523" lon="3.42569">
        <ele>762</ele>
        <time>2016-04-26T07:43:08Z</time>
      </trkpt>
      <trkpt lat="44.51505" lon="3.42591">
        <ele>766</ele>
        <time>2016-04-26T07:43:40Z</time>
      </trkpt>
      <trkpt lat="44.51498" lon="3.426">
        <ele>769</ele>
        <time>2016-04-26T07:43:54Z</time>
      </trkpt>
      <trkpt lat="44.51492" lon="3.42633">
        <ele>772</ele>
        <time>2016-04-26T07:44:26Z</time>
      </trkpt>
      <trkpt lat="44.51488" lon="3.42637">
        <ele>773</ele>
        <time>2016-04-26T07:44:34Z</time>
      </trkpt>
      <trkpt lat="44.51482" lon="3.42647">
        <ele>774</ele>
        <time>2016-04-26T07:44:44Z</time>
      </trkpt>
      <trkpt lat="44.51475" lon="3.42656">
        <ele>774</ele>
        <time>2016-04-26T07:44:56Z</time>
      </trkpt>
      <trkpt lat="44.51474" lon="3.42662">
        <ele>775</ele>
        <time>2016-04-26T07:45:02Z</time>
      </trkpt>
      <trkpt lat="44.51471" lon="3.42668">
        <ele>776</ele>
        <time>2016-04-26T07:45:08Z</time>
      </trkpt>
      <trkpt lat="44.51467" lon="3.42696">
        <ele>779</ele>
        <time>2016-04-26T07:45:40Z</time>
      </trkpt>
      <trkpt lat="44.51469" lon="3.42709">
        <ele>780</ele>
        <time>2016-04-26T07:45:56Z</time>
      </trkpt>
      <trkpt lat="44.51469" lon="3.42737">
        <ele>788</ele>
        <time>2016-04-26T07:46:23Z</time>
      </trkpt>
      <trkpt lat="44.5147" lon="3.4275">
        <ele>789</ele>
        <time>2016-04-26T07:46:37Z</time>
      </trkpt>
      <trkpt lat="44.51473" lon="3.42756">
        <ele>789</ele>
        <time>2016-04-26T07:46:44Z</time>
      </trkpt>
      <trkpt lat="44.51472" lon="3.42763">
        <ele>789</ele>
        <time>2016-04-26T07:46:51Z</time>
      </trkpt>
      <trkpt lat="44.51473" lon="3.4277">
        <ele>791</ele>
        <time>2016-04-26T07:46:58Z</time>
      </trkpt>
      <trkpt lat="44.51474" lon="3.42777">
        <ele>791</ele>
        <time>2016-04-26T07:47:04Z</time>
      </trkpt>
      <trkpt lat="44.51472" lon="3.42783">
        <ele>791</ele>
        <time>2016-04-26T07:47:10Z</time>
      </trkpt>
      <trkpt lat="44.51467" lon="3.42795">
        <ele>791</ele>
        <time>2016-04-26T07:47:22Z</time>
      </trkpt>
      <trkpt lat="44.51466" lon="3.42801">
        <ele>792</ele>
        <time>2016-04-26T07:47:28Z</time>
      </trkpt>
      <trkpt lat="44.51468" lon="3.4281">
        <ele>793</ele>
        <time>2016-04-26T07:47:37Z</time>
      </trkpt>
      <trkpt lat="44.51471" lon="3.42815">
        <ele>795</ele>
        <time>2016-04-26T07:47:43Z</time>
      </trkpt>
      <trkpt lat="44.51469" lon="3.42821">
        <ele>796</ele>
        <time>2016-04-26T07:47:50Z</time>
      </trkpt>
      <trkpt lat="44.51466" lon="3.42827">
        <ele>797</ele>
        <time>2016-04-26T07:47:59Z</time>
      </trkpt>
      <trkpt lat="44.5146" lon="3.42837">
        <ele>798</ele>
        <time>2016-04-26T07:48:10Z</time>
      </trkpt>
      <trkpt lat="44.51465" lon="3.42863">
        <ele>802</ele>
        <time>2016-04-26T07:48:36Z</time>
      </trkpt>
      <trkpt lat="44.51462" lon="3.42868">
        <ele>803</ele>
        <time>2016-04-26T07:48:41Z</time>
      </trkpt>
      <trkpt lat="44.5146" lon="3.42875">
        <ele>802</ele>
        <time>2016-04-26T07:48:48Z</time>
      </trkpt>
      <trkpt lat="44.51457" lon="3.42882">
        <ele>802</ele>
        <time>2016-04-26T07:48:55Z</time>
      </trkpt>
      <trkpt lat="44.51456" lon="3.42888">
        <ele>804</ele>
        <time>2016-04-26T07:49:03Z</time>
      </trkpt>
      <trkpt lat="44.51451" lon="3.429">
        <ele>806</ele>
        <time>2016-04-26T07:49:17Z</time>
      </trkpt>
      <trkpt lat="44.51448" lon="3.42907">
        <ele>806</ele>
        <time>2016-04-26T07:49:25Z</time>
      </trkpt>
      <trkpt lat="44.51447" lon="3.42913">
        <ele>806</ele>
        <time>2016-04-26T07:49:32Z</time>
      </trkpt>
      <trkpt lat="44.51451" lon="3.42917">
        <ele>808</ele>
        <time>2016-04-26T07:49:38Z</time>
      </trkpt>
      <trkpt lat="44.51449" lon="3.42926">
        <ele>810</ele>
        <time>2016-04-26T07:49:51Z</time>
      </trkpt>
      <trkpt lat="44.51451" lon="3.42932">
        <ele>811</ele>
        <time>2016-04-26T07:49:58Z</time>
      </trkpt>
      <trkpt lat="44.51451" lon="3.42939">
        <ele>813</ele>
        <time>2016-04-26T07:50:06Z</time>
      </trkpt>
      <trkpt lat="44.5145" lon="3.42946">
        <ele>814</ele>
        <time>2016-04-26T07:50:12Z</time>
      </trkpt>
      <trkpt lat="44.51449" lon="3.42942">
        <ele>812</ele>
        <time>2016-04-26T07:53:58Z</time>
      </trkpt>
      <trkpt lat="44.5145" lon="3.42941">
        <ele>812</ele>
        <time>2016-04-26T07:56:05Z</time>
      </trkpt>
      <trkpt lat="44.51455" lon="3.42939">
        <ele>812</ele>
        <time>2016-04-26T07:56:12Z</time>
      </trkpt>
      <trkpt lat="44.5146" lon="3.42942">
        <ele>814</ele>
        <time>2016-04-26T07:56:18Z</time>
      </trkpt>
      <trkpt lat="44.51464" lon="3.42946">
        <ele>815</ele>
        <time>2016-04-26T07:56:25Z</time>
      </trkpt>
      <trkpt lat="44.51485" lon="3.4295">
        <ele>821</ele>
        <time>2016-04-26T07:56:48Z</time>
      </trkpt>
      <trkpt lat="44.5149" lon="3.42953">
        <ele>821</ele>
        <time>2016-04-26T07:56:52Z</time>
      </trkpt>
      <trkpt lat="44.515" lon="3.42956">
        <ele>822</ele>
        <time>2016-04-26T07:57:00Z</time>
      </trkpt>
      <trkpt lat="44.51525" lon="3.42958">
        <ele>827</ele>
        <time>2016-04-26T07:57:29Z</time>
      </trkpt>
      <trkpt lat="44.5153" lon="3.4296">
        <ele>827</ele>
        <time>2016-04-26T07:57:36Z</time>
      </trkpt>
      <trkpt lat="44.51553" lon="3.4297">
        <ele>831</ele>
        <time>2016-04-26T07:58:06Z</time>
      </trkpt>
      <trkpt lat="44.51557" lon="3.42974">
        <ele>831</ele>
        <time>2016-04-26T07:58:11Z</time>
      </trkpt>
      <trkpt lat="44.51561" lon="3.42978">
        <ele>831</ele>
        <time>2016-04-26T07:58:16Z</time>
      </trkpt>
      <trkpt lat="44.51566" lon="3.42978">
        <ele>832</ele>
        <time>2016-04-26T07:58:23Z</time>
      </trkpt>
      <trkpt lat="44.51571" lon="3.42979">
        <ele>833</ele>
        <time>2016-04-26T07:58:29Z</time>
      </trkpt>
      <trkpt lat="44.5158" lon="3.42979">
        <ele>833</ele>
        <time>2016-04-26T07:58:46Z</time>
      </trkpt>
      <trkpt lat="44.51588" lon="3.42985">
        <ele>830</ele>
        <time>2016-04-26T07:58:56Z</time>
      </trkpt>
      <trkpt lat="44.51603" lon="3.42986">
        <ele>831</ele>
        <time>2016-04-26T07:59:14Z</time>
      </trkpt>
      <trkpt lat="44.51608" lon="3.42985">
        <ele>831</ele>
        <time>2016-04-26T07:59:20Z</time>
      </trkpt>
      <trkpt lat="44.51611" lon="3.42988">
        <ele>831</ele>
        <time>2016-04-26T07:59:25Z</time>
      </trkpt>
      <trkpt lat="44.51625" lon="3.42993">
        <ele>837</ele>
        <time>2016-04-26T07:59:46Z</time>
      </trkpt>
      <trkpt lat="44.51627" lon="3.42996">
        <ele>837</ele>
        <time>2016-04-26T07:59:52Z</time>
      </trkpt>
      <trkpt lat="44.5163" lon="3.43001">
        <ele>836</ele>
        <time>2016-04-26T07:59:58Z</time>
      </trkpt>
      <trkpt lat="44.51634" lon="3.43007">
        <ele>835</ele>
        <time>2016-04-26T08:00:04Z</time>
      </trkpt>
      <trkpt lat="44.51645" lon="3.43018">
        <ele>835</ele>
        <time>2016-04-26T08:00:28Z</time>
      </trkpt>
      <trkpt lat="44.51651" lon="3.43023">
        <ele>836</ele>
        <time>2016-04-26T08:00:39Z</time>
      </trkpt>
      <trkpt lat="44.51655" lon="3.43023">
        <ele>836</ele>
        <time>2016-04-26T08:00:46Z</time>
      </trkpt>
      <trkpt lat="44.51659" lon="3.43027">
        <ele>835</ele>
        <time>2016-04-26T08:00:53Z</time>
      </trkpt>
      <trkpt lat="44.5166" lon="3.43033">
        <ele>834</ele>
        <time>2016-04-26T08:00:58Z</time>
      </trkpt>
      <trkpt lat="44.51661" lon="3.43039">
        <ele>835</ele>
        <time>2016-04-26T08:01:05Z</time>
      </trkpt>
      <trkpt lat="44.51666" lon="3.4304">
        <ele>837</ele>
        <time>2016-04-26T08:01:13Z</time>
      </trkpt>
      <trkpt lat="44.51675" lon="3.43041">
        <ele>839</ele>
        <time>2016-04-26T08:01:24Z</time>
      </trkpt>
      <trkpt lat="44.51677" lon="3.43044">
        <ele>839</ele>
        <time>2016-04-26T08:01:30Z</time>
      </trkpt>
      <trkpt lat="44.51683" lon="3.43055">
        <ele>839</ele>
        <time>2016-04-26T08:01:42Z</time>
      </trkpt>
      <trkpt lat="44.51686" lon="3.4306">
        <ele>839</ele>
        <time>2016-04-26T08:01:46Z</time>
      </trkpt>
      <trkpt lat="44.51689" lon="3.43066">
        <ele>840</ele>
        <time>2016-04-26T08:01:51Z</time>
      </trkpt>
      <trkpt lat="44.51699" lon="3.43097">
        <ele>843</ele>
        <time>2016-04-26T08:02:20Z</time>
      </trkpt>
      <trkpt lat="44.51702" lon="3.43102">
        <ele>843</ele>
        <time>2016-04-26T08:02:26Z</time>
      </trkpt>
      <trkpt lat="44.51704" lon="3.43108">
        <ele>842</ele>
        <time>2016-04-26T08:02:32Z</time>
      </trkpt>
      <trkpt lat="44.51709" lon="3.43111">
        <ele>842</ele>
        <time>2016-04-26T08:02:40Z</time>
      </trkpt>
      <trkpt lat="44.51718" lon="3.43116">
        <ele>843</ele>
        <time>2016-04-26T08:02:52Z</time>
      </trkpt>
      <trkpt lat="44.51722" lon="3.43119">
        <ele>843</ele>
        <time>2016-04-26T08:02:56Z</time>
      </trkpt>
      <trkpt lat="44.51725" lon="3.43124">
        <ele>843</ele>
        <time>2016-04-26T08:03:02Z</time>
      </trkpt>
      <trkpt lat="44.51734" lon="3.4313">
        <ele>842</ele>
        <time>2016-04-26T08:03:11Z</time>
      </trkpt>
      <trkpt lat="44.51739" lon="3.43131">
        <ele>843</ele>
        <time>2016-04-26T08:03:19Z</time>
      </trkpt>
      <trkpt lat="44.51743" lon="3.43133">
        <ele>842</ele>
        <time>2016-04-26T08:03:27Z</time>
      </trkpt>
      <trkpt lat="44.51752" lon="3.43137">
        <ele>843</ele>
        <time>2016-04-26T08:03:42Z</time>
      </trkpt>
      <trkpt lat="44.51756" lon="3.4314">
        <ele>843</ele>
        <time>2016-04-26T08:03:49Z</time>
      </trkpt>
      <trkpt lat="44.51761" lon="3.43141">
        <ele>844</ele>
        <time>2016-04-26T08:03:57Z</time>
      </trkpt>
      <trkpt lat="44.51766" lon="3.43138">
        <ele>845</ele>
        <time>2016-04-26T08:04:05Z</time>
      </trkpt>
      <trkpt lat="44.5177" lon="3.43141">
        <ele>845</ele>
        <time>2016-04-26T08:04:10Z</time>
      </trkpt>
      <trkpt lat="44.51774" lon="3.43144">
        <ele>846</ele>
        <time>2016-04-26T08:04:15Z</time>
      </trkpt>
      <trkpt lat="44.51778" lon="3.43148">
        <ele>846</ele>
        <time>2016-04-26T08:04:22Z</time>
      </trkpt>
      <trkpt lat="44.51782" lon="3.43153">
        <ele>845</ele>
        <time>2016-04-26T08:04:26Z</time>
      </trkpt>
      <trkpt lat="44.51786" lon="3.43156">
        <ele>845</ele>
        <time>2016-04-26T08:04:31Z</time>
      </trkpt>
      <trkpt lat="44.51795" lon="3.43162">
        <ele>846</ele>
        <time>2016-04-26T08:04:42Z</time>
      </trkpt>
      <trkpt lat="44.51804" lon="3.43164">
        <ele>849</ele>
        <time>2016-04-26T08:04:53Z</time>
      </trkpt>
      <trkpt lat="44.51807" lon="3.43168">
        <ele>849</ele>
        <time>2016-04-26T08:04:59Z</time>
      </trkpt>
      <trkpt lat="44.51812" lon="3.43172">
        <ele>848</ele>
        <time>2016-04-26T08:05:05Z</time>
      </trkpt>
      <trkpt lat="44.51821" lon="3.43169">
        <ele>849</ele>
        <time>2016-04-26T08:05:16Z</time>
      </trkpt>
      <trkpt lat="44.51834" lon="3.43161">
        <ele>850</ele>
        <time>2016-04-26T08:05:34Z</time>
      </trkpt>
      <trkpt lat="44.51839" lon="3.43159">
        <ele>850</ele>
        <time>2016-04-26T08:05:41Z</time>
      </trkpt>
      <trkpt lat="44.51851" lon="3.43149">
        <ele>852</ele>
        <time>2016-04-26T08:06:08Z</time>
      </trkpt>
      <trkpt lat="44.51854" lon="3.43155">
        <ele>852</ele>
        <time>2016-04-26T08:06:16Z</time>
      </trkpt>
      <trkpt lat="44.51857" lon="3.4316">
        <ele>851</ele>
        <time>2016-04-26T08:06:24Z</time>
      </trkpt>
      <trkpt lat="44.51862" lon="3.43161">
        <ele>851</ele>
        <time>2016-04-26T08:06:29Z</time>
      </trkpt>
      <trkpt lat="44.51867" lon="3.43164">
        <ele>852</ele>
        <time>2016-04-26T08:06:34Z</time>
      </trkpt>
      <trkpt lat="44.5187" lon="3.43169">
        <ele>852</ele>
        <time>2016-04-26T08:06:44Z</time>
      </trkpt>
      <trkpt lat="44.51875" lon="3.43174">
        <ele>852</ele>
        <time>2016-04-26T08:06:57Z</time>
      </trkpt>
      <trkpt lat="44.51889" lon="3.43184">
        <ele>850</ele>
        <time>2016-04-26T08:07:28Z</time>
      </trkpt>
      <trkpt lat="44.51893" lon="3.43186">
        <ele>851</ele>
        <time>2016-04-26T08:07:45Z</time>
      </trkpt>
      <trkpt lat="44.519" lon="3.43192">
        <ele>851</ele>
        <time>2016-04-26T08:08:00Z</time>
      </trkpt>
      <trkpt lat="44.51902" lon="3.43198">
        <ele>852</ele>
        <time>2016-04-26T08:08:09Z</time>
      </trkpt>
      <trkpt lat="44.51906" lon="3.432">
        <ele>852</ele>
        <time>2016-04-26T08:08:14Z</time>
      </trkpt>
      <trkpt lat="44.51917" lon="3.43209">
        <ele>850</ele>
        <time>2016-04-26T08:08:33Z</time>
      </trkpt>
      <trkpt lat="44.51912" lon="3.43209">
        <ele>851</ele>
        <time>2016-04-26T08:09:52Z</time>
      </trkpt>
      <trkpt lat="44.51924" lon="3.43199">
        <ele>851</ele>
        <time>2016-04-26T08:10:00Z</time>
      </trkpt>
      <trkpt lat="44.51921" lon="3.43203">
        <ele>851</ele>
        <time>2016-04-26T08:10:16Z</time>
      </trkpt>
      <trkpt lat="44.51923" lon="3.43207">
        <ele>854</ele>
        <time>2016-04-26T08:10:50Z</time>
      </trkpt>
      <trkpt lat="44.51928" lon="3.43211">
        <ele>853</ele>
        <time>2016-04-26T08:10:59Z</time>
      </trkpt>
      <trkpt lat="44.51926" lon="3.43212">
        <ele>848</ele>
        <time>2016-04-26T08:11:15Z</time>
      </trkpt>
      <trkpt lat="44.51922" lon="3.43212">
        <ele>848</ele>
        <time>2016-04-26T08:11:24Z</time>
      </trkpt>
      <trkpt lat="44.51919" lon="3.43204">
        <ele>846</ele>
        <time>2016-04-26T08:11:38Z</time>
      </trkpt>
      <trkpt lat="44.51917" lon="3.43202">
        <ele>846</ele>
        <time>2016-04-26T08:11:44Z</time>
      </trkpt>
      <trkpt lat="44.51919" lon="3.43196">
        <ele>846</ele>
        <time>2016-04-26T08:11:53Z</time>
      </trkpt>
      <trkpt lat="44.51921" lon="3.43199">
        <ele>846</ele>
        <time>2016-04-26T08:12:09Z</time>
      </trkpt>
      <trkpt lat="44.51923" lon="3.43203">
        <ele>846</ele>
        <time>2016-04-26T08:12:20Z</time>
      </trkpt>
      <trkpt lat="44.51928" lon="3.43203">
        <ele>846</ele>
        <time>2016-04-26T08:12:30Z</time>
      </trkpt>
      <trkpt lat="44.51931" lon="3.43201">
        <ele>844</ele>
        <time>2016-04-26T08:12:42Z</time>
      </trkpt>
      <trkpt lat="44.51932" lon="3.43196">
        <ele>843</ele>
        <time>2016-04-26T08:12:51Z</time>
      </trkpt>
      <trkpt lat="44.51939" lon="3.432">
        <ele>844</ele>
        <time>2016-04-26T08:13:28Z</time>
      </trkpt>
      <trkpt lat="44.51943" lon="3.43203">
        <ele>845</ele>
        <time>2016-04-26T08:13:34Z</time>
      </trkpt>
      <trkpt lat="44.51943" lon="3.4321">
        <ele>846</ele>
        <time>2016-04-26T08:13:41Z</time>
      </trkpt>
      <trkpt lat="44.51946" lon="3.43217">
        <ele>847</ele>
        <time>2016-04-26T08:13:54Z</time>
      </trkpt>
      <trkpt lat="44.51947" lon="3.43223">
        <ele>847</ele>
        <time>2016-04-26T08:14:00Z</time>
      </trkpt>
      <trkpt lat="44.51951" lon="3.43227">
        <ele>847</ele>
        <time>2016-04-26T08:14:05Z</time>
      </trkpt>
      <trkpt lat="44.51955" lon="3.43231">
        <ele>847</ele>
        <time>2016-04-26T08:14:11Z</time>
      </trkpt>
      <trkpt lat="44.51959" lon="3.43237">
        <ele>847</ele>
        <time>2016-04-26T08:14:24Z</time>
      </trkpt>
      <trkpt lat="44.51964" lon="3.43238">
        <ele>847</ele>
        <time>2016-04-26T08:14:29Z</time>
      </trkpt>
      <trkpt lat="44.51968" lon="3.43241">
        <ele>848</ele>
        <time>2016-04-26T08:14:35Z</time>
      </trkpt>
      <trkpt lat="44.51972" lon="3.43246">
        <ele>850</ele>
        <time>2016-04-26T08:14:41Z</time>
      </trkpt>
      <trkpt lat="44.51977" lon="3.43248">
        <ele>851</ele>
        <time>2016-04-26T08:14:46Z</time>
      </trkpt>
      <trkpt lat="44.51979" lon="3.43246">
        <ele>853</ele>
        <time>2016-04-26T08:14:52Z</time>
      </trkpt>
      <trkpt lat="44.51984" lon="3.43243">
        <ele>853</ele>
        <time>2016-04-26T08:14:59Z</time>
      </trkpt>
      <trkpt lat="44.51988" lon="3.43243">
        <ele>853</ele>
        <time>2016-04-26T08:15:03Z</time>
      </trkpt>
      <trkpt lat="44.51994" lon="3.43242">
        <ele>853</ele>
        <time>2016-04-26T08:15:08Z</time>
      </trkpt>
      <trkpt lat="44.51999" lon="3.4324">
        <ele>853</ele>
        <time>2016-04-26T08:15:13Z</time>
      </trkpt>
      <trkpt lat="44.52003" lon="3.43237">
        <ele>853</ele>
        <time>2016-04-26T08:15:18Z</time>
      </trkpt>
      <trkpt lat="44.52007" lon="3.43236">
        <ele>852</ele>
        <time>2016-04-26T08:15:22Z</time>
      </trkpt>
      <trkpt lat="44.52012" lon="3.43236">
        <ele>852</ele>
        <time>2016-04-26T08:15:26Z</time>
      </trkpt>
      <trkpt lat="44.52027" lon="3.43238">
        <ele>855</ele>
        <time>2016-04-26T08:15:42Z</time>
      </trkpt>
      <trkpt lat="44.52032" lon="3.4324">
        <ele>855</ele>
        <time>2016-04-26T08:15:47Z</time>
      </trkpt>
      <trkpt lat="44.52037" lon="3.43242">
        <ele>854</ele>
        <time>2016-04-26T08:15:54Z</time>
      </trkpt>
      <trkpt lat="44.52042" lon="3.43245">
        <ele>854</ele>
        <time>2016-04-26T08:15:59Z</time>
      </trkpt>
      <trkpt lat="44.52046" lon="3.4325">
        <ele>854</ele>
        <time>2016-04-26T08:16:04Z</time>
      </trkpt>
      <trkpt lat="44.52072" lon="3.43271">
        <ele>861</ele>
        <time>2016-04-26T08:16:39Z</time>
      </trkpt>
      <trkpt lat="44.52077" lon="3.43274">
        <ele>862</ele>
        <time>2016-04-26T08:16:46Z</time>
      </trkpt>
      <trkpt lat="44.52086" lon="3.4328">
        <ele>860</ele>
        <time>2016-04-26T08:16:58Z</time>
      </trkpt>
      <trkpt lat="44.52109" lon="3.4329">
        <ele>863</ele>
        <time>2016-04-26T08:17:21Z</time>
      </trkpt>
      <trkpt lat="44.52118" lon="3.43295">
        <ele>864</ele>
        <time>2016-04-26T08:17:30Z</time>
      </trkpt>
      <trkpt lat="44.52136" lon="3.43319">
        <ele>867</ele>
        <time>2016-04-26T08:18:01Z</time>
      </trkpt>
      <trkpt lat="44.52146" lon="3.43335">
        <ele>865</ele>
        <time>2016-04-26T08:18:17Z</time>
      </trkpt>
      <trkpt lat="44.52153" lon="3.43346">
        <ele>865</ele>
        <time>2016-04-26T08:18:27Z</time>
      </trkpt>
      <trkpt lat="44.52159" lon="3.43357">
        <ele>866</ele>
        <time>2016-04-26T08:18:37Z</time>
      </trkpt>
      <trkpt lat="44.52159" lon="3.43364">
        <ele>867</ele>
        <time>2016-04-26T08:18:42Z</time>
      </trkpt>
      <trkpt lat="44.5216" lon="3.43371">
        <ele>867</ele>
        <time>2016-04-26T08:18:48Z</time>
      </trkpt>
      <trkpt lat="44.52161" lon="3.43399">
        <ele>865</ele>
        <time>2016-04-26T08:19:10Z</time>
      </trkpt>
      <trkpt lat="44.52163" lon="3.43406">
        <ele>865</ele>
        <time>2016-04-26T08:19:17Z</time>
      </trkpt>
      <trkpt lat="44.52167" lon="3.43418">
        <ele>864</ele>
        <time>2016-04-26T08:19:30Z</time>
      </trkpt>
      <trkpt lat="44.5217" lon="3.43424">
        <ele>864</ele>
        <time>2016-04-26T08:19:35Z</time>
      </trkpt>
      <trkpt lat="44.52172" lon="3.4343">
        <ele>864</ele>
        <time>2016-04-26T08:19:41Z</time>
      </trkpt>
      <trkpt lat="44.52179" lon="3.4347">
        <ele>867</ele>
        <time>2016-04-26T08:20:13Z</time>
      </trkpt>
      <trkpt lat="44.52179" lon="3.43478">
        <ele>867</ele>
        <time>2016-04-26T08:20:19Z</time>
      </trkpt>
      <trkpt lat="44.52182" lon="3.43483">
        <ele>869</ele>
        <time>2016-04-26T08:20:24Z</time>
      </trkpt>
      <trkpt lat="44.52183" lon="3.43489">
        <ele>869</ele>
        <time>2016-04-26T08:20:29Z</time>
      </trkpt>
      <trkpt lat="44.52182" lon="3.43496">
        <ele>869</ele>
        <time>2016-04-26T08:20:34Z</time>
      </trkpt>
      <trkpt lat="44.52183" lon="3.4351">
        <ele>869</ele>
        <time>2016-04-26T08:20:44Z</time>
      </trkpt>
      <trkpt lat="44.52182" lon="3.43525">
        <ele>868</ele>
        <time>2016-04-26T08:20:55Z</time>
      </trkpt>
      <trkpt lat="44.52179" lon="3.43553">
        <ele>871</ele>
        <time>2016-04-26T08:21:15Z</time>
      </trkpt>
      <trkpt lat="44.52181" lon="3.43561">
        <ele>872</ele>
        <time>2016-04-26T08:21:20Z</time>
      </trkpt>
      <trkpt lat="44.5219" lon="3.43577">
        <ele>871</ele>
        <time>2016-04-26T08:21:32Z</time>
      </trkpt>
      <trkpt lat="44.52194" lon="3.43579">
        <ele>870</ele>
        <time>2016-04-26T08:21:36Z</time>
      </trkpt>
      <trkpt lat="44.52199" lon="3.43582">
        <ele>870</ele>
        <time>2016-04-26T08:21:40Z</time>
      </trkpt>
      <trkpt lat="44.52209" lon="3.43599">
        <ele>871</ele>
        <time>2016-04-26T08:21:55Z</time>
      </trkpt>
      <trkpt lat="44.52216" lon="3.43608">
        <ele>869</ele>
        <time>2016-04-26T08:22:03Z</time>
      </trkpt>
      <trkpt lat="44.5222" lon="3.43612">
        <ele>869</ele>
        <time>2016-04-26T08:22:09Z</time>
      </trkpt>
      <trkpt lat="44.52228" lon="3.4363">
        <ele>868</ele>
        <time>2016-04-26T08:22:24Z</time>
      </trkpt>
      <trkpt lat="44.52231" lon="3.43636">
        <ele>868</ele>
        <time>2016-04-26T08:22:28Z</time>
      </trkpt>
      <trkpt lat="44.52231" lon="3.43643">
        <ele>868</ele>
        <time>2016-04-26T08:22:33Z</time>
      </trkpt>
      <trkpt lat="44.52233" lon="3.4365">
        <ele>868</ele>
        <time>2016-04-26T08:22:38Z</time>
      </trkpt>
      <trkpt lat="44.52234" lon="3.43656">
        <ele>868</ele>
        <time>2016-04-26T08:22:43Z</time>
      </trkpt>
      <trkpt lat="44.52232" lon="3.43671">
        <ele>868</ele>
        <time>2016-04-26T08:22:54Z</time>
      </trkpt>
      <trkpt lat="44.52235" lon="3.43677">
        <ele>868</ele>
        <time>2016-04-26T08:22:59Z</time>
      </trkpt>
      <trkpt lat="44.52232" lon="3.43681">
        <ele>868</ele>
        <time>2016-04-26T08:23:09Z</time>
      </trkpt>
      <trkpt lat="44.52233" lon="3.43688">
        <ele>868</ele>
        <time>2016-04-26T08:23:15Z</time>
      </trkpt>
      <trkpt lat="44.52251" lon="3.43721">
        <ele>875</ele>
        <time>2016-04-26T08:23:44Z</time>
      </trkpt>
      <trkpt lat="44.52263" lon="3.43743">
        <ele>876</ele>
        <time>2016-04-26T08:24:03Z</time>
      </trkpt>
      <trkpt lat="44.52265" lon="3.43749">
        <ele>876</ele>
        <time>2016-04-26T08:24:08Z</time>
      </trkpt>
      <trkpt lat="44.52266" lon="3.43756">
        <ele>875</ele>
        <time>2016-04-26T08:24:13Z</time>
      </trkpt>
      <trkpt lat="44.52269" lon="3.43762">
        <ele>876</ele>
        <time>2016-04-26T08:24:19Z</time>
      </trkpt>
      <trkpt lat="44.52271" lon="3.43768">
        <ele>876</ele>
        <time>2016-04-26T08:24:25Z</time>
      </trkpt>
      <trkpt lat="44.52271" lon="3.43775">
        <ele>876</ele>
        <time>2016-04-26T08:24:37Z</time>
      </trkpt>
      <trkpt lat="44.52278" lon="3.43785">
        <ele>876</ele>
        <time>2016-04-26T08:24:48Z</time>
      </trkpt>
      <trkpt lat="44.52278" lon="3.4379">
        <ele>875</ele>
        <time>2016-04-26T08:25:15Z</time>
      </trkpt>
      <trkpt lat="44.52282" lon="3.43797">
        <ele>876</ele>
        <time>2016-04-26T08:25:27Z</time>
      </trkpt>
      <trkpt lat="44.52284" lon="3.43798">
        <ele>876</ele>
        <time>2016-04-26T08:25:45Z</time>
      </trkpt>
      <trkpt lat="44.52285" lon="3.43805">
        <ele>877</ele>
        <time>2016-04-26T08:26:13Z</time>
      </trkpt>
      <trkpt lat="44.52288" lon="3.43811">
        <ele>878</ele>
        <time>2016-04-26T08:26:18Z</time>
      </trkpt>
      <trkpt lat="44.52294" lon="3.43821">
        <ele>879</ele>
        <time>2016-04-26T08:26:26Z</time>
      </trkpt>
      <trkpt lat="44.52297" lon="3.43826">
        <ele>880</ele>
        <time>2016-04-26T08:26:31Z</time>
      </trkpt>
      <trkpt lat="44.52299" lon="3.43832">
        <ele>880</ele>
        <time>2016-04-26T08:26:35Z</time>
      </trkpt>
      <trkpt lat="44.52302" lon="3.43839">
        <ele>879</ele>
        <time>2016-04-26T08:26:40Z</time>
      </trkpt>
      <trkpt lat="44.52305" lon="3.43845">
        <ele>879</ele>
        <time>2016-04-26T08:26:44Z</time>
      </trkpt>
      <trkpt lat="44.52307" lon="3.4385">
        <ele>880</ele>
        <time>2016-04-26T08:26:48Z</time>
      </trkpt>
      <trkpt lat="44.52319" lon="3.43867">
        <ele>879</ele>
        <time>2016-04-26T08:27:01Z</time>
      </trkpt>
      <trkpt lat="44.52325" lon="3.43885">
        <ele>875</ele>
        <time>2016-04-26T08:27:13Z</time>
      </trkpt>
      <trkpt lat="44.52326" lon="3.43891">
        <ele>874</ele>
        <time>2016-04-26T08:27:17Z</time>
      </trkpt>
      <trkpt lat="44.52327" lon="3.43911">
        <ele>872</ele>
        <time>2016-04-26T08:27:29Z</time>
      </trkpt>
      <trkpt lat="44.52328" lon="3.43924">
        <ele>872</ele>
        <time>2016-04-26T08:27:37Z</time>
      </trkpt>
      <trkpt lat="44.52329" lon="3.43953">
        <ele>875</ele>
        <time>2016-04-26T08:27:57Z</time>
      </trkpt>
      <trkpt lat="44.52328" lon="3.43959">
        <ele>875</ele>
        <time>2016-04-26T08:28:02Z</time>
      </trkpt>
      <trkpt lat="44.5233" lon="3.43967">
        <ele>874</ele>
        <time>2016-04-26T08:28:07Z</time>
      </trkpt>
      <trkpt lat="44.52335" lon="3.43978">
        <ele>875</ele>
        <time>2016-04-26T08:28:16Z</time>
      </trkpt>
      <trkpt lat="44.52344" lon="3.44004">
        <ele>871</ele>
        <time>2016-04-26T08:28:33Z</time>
      </trkpt>
      <trkpt lat="44.52348" lon="3.44008">
        <ele>872</ele>
        <time>2016-04-26T08:28:38Z</time>
      </trkpt>
      <trkpt lat="44.52356" lon="3.44015">
        <ele>871</ele>
        <time>2016-04-26T08:28:48Z</time>
      </trkpt>
      <trkpt lat="44.52359" lon="3.4402">
        <ele>871</ele>
        <time>2016-04-26T08:28:52Z</time>
      </trkpt>
      <trkpt lat="44.52363" lon="3.44025">
        <ele>872</ele>
        <time>2016-04-26T08:28:56Z</time>
      </trkpt>
      <trkpt lat="44.52372" lon="3.44054">
        <ele>869</ele>
        <time>2016-04-26T08:29:12Z</time>
      </trkpt>
      <trkpt lat="44.52375" lon="3.4406">
        <ele>870</ele>
        <time>2016-04-26T08:29:16Z</time>
      </trkpt>
      <trkpt lat="44.52375" lon="3.44067">
        <ele>871</ele>
        <time>2016-04-26T08:29:20Z</time>
      </trkpt>
      <trkpt lat="44.52371" lon="3.44095">
        <ele>872</ele>
        <time>2016-04-26T08:29:37Z</time>
      </trkpt>
      <trkpt lat="44.52371" lon="3.44109">
        <ele>871</ele>
        <time>2016-04-26T08:29:46Z</time>
      </trkpt>
      <trkpt lat="44.52371" lon="3.44117">
        <ele>871</ele>
        <time>2016-04-26T08:29:51Z</time>
      </trkpt>
      <trkpt lat="44.52373" lon="3.44123">
        <ele>871</ele>
        <time>2016-04-26T08:29:55Z</time>
      </trkpt>
      <trkpt lat="44.52373" lon="3.4413">
        <ele>871</ele>
        <time>2016-04-26T08:30:00Z</time>
      </trkpt>
      <trkpt lat="44.52371" lon="3.44136">
        <ele>871</ele>
        <time>2016-04-26T08:30:05Z</time>
      </trkpt>
      <trkpt lat="44.52373" lon="3.44143">
        <ele>870</ele>
        <time>2016-04-26T08:30:10Z</time>
      </trkpt>
      <trkpt lat="44.52379" lon="3.44156">
        <ele>871</ele>
        <time>2016-04-26T08:30:19Z</time>
      </trkpt>
      <trkpt lat="44.5238" lon="3.44169">
        <ele>869</ele>
        <time>2016-04-26T08:30:28Z</time>
      </trkpt>
      <trkpt lat="44.52381" lon="3.44175">
        <ele>869</ele>
        <time>2016-04-26T08:30:33Z</time>
      </trkpt>
      <trkpt lat="44.52383" lon="3.44181">
        <ele>870</ele>
        <time>2016-04-26T08:30:38Z</time>
      </trkpt>
      <trkpt lat="44.52384" lon="3.44188">
        <ele>870</ele>
        <time>2016-04-26T08:30:42Z</time>
      </trkpt>
      <trkpt lat="44.52387" lon="3.44193">
        <ele>870</ele>
        <time>2016-04-26T08:30:46Z</time>
      </trkpt>
      <trkpt lat="44.52393" lon="3.44205">
        <ele>869</ele>
        <time>2016-04-26T08:30:54Z</time>
      </trkpt>
      <trkpt lat="44.52399" lon="3.4423">
        <ele>869</ele>
        <time>2016-04-26T08:31:10Z</time>
      </trkpt>
      <trkpt lat="44.52401" lon="3.44243">
        <ele>871</ele>
        <time>2016-04-26T08:31:18Z</time>
      </trkpt>
      <trkpt lat="44.52403" lon="3.4425">
        <ele>871</ele>
        <time>2016-04-26T08:31:22Z</time>
      </trkpt>
      <trkpt lat="44.52404" lon="3.44272">
        <ele>873</ele>
        <time>2016-04-26T08:31:37Z</time>
      </trkpt>
      <trkpt lat="44.52403" lon="3.4428">
        <ele>873</ele>
        <time>2016-04-26T08:31:42Z</time>
      </trkpt>
      <trkpt lat="44.52396" lon="3.44297">
        <ele>872</ele>
        <time>2016-04-26T08:31:54Z</time>
      </trkpt>
      <trkpt lat="44.52384" lon="3.44332">
        <ele>874</ele>
        <time>2016-04-26T08:32:18Z</time>
      </trkpt>
      <trkpt lat="44.52377" lon="3.44342">
        <ele>873</ele>
        <time>2016-04-26T08:32:27Z</time>
      </trkpt>
      <trkpt lat="44.52374" lon="3.44347">
        <ele>873</ele>
        <time>2016-04-26T08:32:32Z</time>
      </trkpt>
      <trkpt lat="44.52371" lon="3.44352">
        <ele>874</ele>
        <time>2016-04-26T08:32:38Z</time>
      </trkpt>
      <trkpt lat="44.52362" lon="3.4437">
        <ele>874</ele>
        <time>2016-04-26T08:32:53Z</time>
      </trkpt>
      <trkpt lat="44.52359" lon="3.44391">
        <ele>873</ele>
        <time>2016-04-26T08:33:05Z</time>
      </trkpt>
      <trkpt lat="44.52359" lon="3.44397">
        <ele>873</ele>
        <time>2016-04-26T08:33:09Z</time>
      </trkpt>
      <trkpt lat="44.5236" lon="3.44404">
        <ele>873</ele>
        <time>2016-04-26T08:33:13Z</time>
      </trkpt>
      <trkpt lat="44.52361" lon="3.44411">
        <ele>873</ele>
        <time>2016-04-26T08:33:17Z</time>
      </trkpt>
      <trkpt lat="44.52361" lon="3.44418">
        <ele>873</ele>
        <time>2016-04-26T08:33:22Z</time>
      </trkpt>
      <trkpt lat="44.52364" lon="3.44423">
        <ele>875</ele>
        <time>2016-04-26T08:33:27Z</time>
      </trkpt>
      <trkpt lat="44.52366" lon="3.44428">
        <ele>875</ele>
        <time>2016-04-26T08:33:31Z</time>
      </trkpt>
      <trkpt lat="44.52367" lon="3.44435">
        <ele>873</ele>
        <time>2016-04-26T08:33:35Z</time>
      </trkpt>
      <trkpt lat="44.52369" lon="3.44442">
        <ele>872</ele>
        <time>2016-04-26T08:33:40Z</time>
      </trkpt>
      <trkpt lat="44.52372" lon="3.44448">
        <ele>872</ele>
        <time>2016-04-26T08:33:45Z</time>
      </trkpt>
      <trkpt lat="44.52374" lon="3.44455">
        <ele>873</ele>
        <time>2016-04-26T08:33:50Z</time>
      </trkpt>
      <trkpt lat="44.52373" lon="3.44462">
        <ele>873</ele>
        <time>2016-04-26T08:33:54Z</time>
      </trkpt>
      <trkpt lat="44.52373" lon="3.4447">
        <ele>873</ele>
        <time>2016-04-26T08:33:59Z</time>
      </trkpt>
      <trkpt lat="44.52373" lon="3.44478">
        <ele>873</ele>
        <time>2016-04-26T08:34:04Z</time>
      </trkpt>
      <trkpt lat="44.52373" lon="3.44485">
        <ele>874</ele>
        <time>2016-04-26T08:34:10Z</time>
      </trkpt>
      <trkpt lat="44.52372" lon="3.44492">
        <ele>873</ele>
        <time>2016-04-26T08:34:15Z</time>
      </trkpt>
      <trkpt lat="44.52373" lon="3.44499">
        <ele>873</ele>
        <time>2016-04-26T08:34:19Z</time>
      </trkpt>
      <trkpt lat="44.52377" lon="3.44513">
        <ele>875</ele>
        <time>2016-04-26T08:34:28Z</time>
      </trkpt>
      <trkpt lat="44.52385" lon="3.44523">
        <ele>877</ele>
        <time>2016-04-26T08:34:36Z</time>
      </trkpt>
      <trkpt lat="44.52386" lon="3.44529">
        <ele>879</ele>
        <time>2016-04-26T08:34:41Z</time>
      </trkpt>
      <trkpt lat="44.52386" lon="3.44543">
        <ele>881</ele>
        <time>2016-04-26T08:34:51Z</time>
      </trkpt>
      <trkpt lat="44.52386" lon="3.4455">
        <ele>880</ele>
        <time>2016-04-26T08:34:56Z</time>
      </trkpt>
      <trkpt lat="44.52392" lon="3.44562">
        <ele>879</ele>
        <time>2016-04-26T08:35:06Z</time>
      </trkpt>
      <trkpt lat="44.52395" lon="3.44568">
        <ele>880</ele>
        <time>2016-04-26T08:35:12Z</time>
      </trkpt>
      <trkpt lat="44.52408" lon="3.44578">
        <ele>882</ele>
        <time>2016-04-26T08:35:23Z</time>
      </trkpt>
      <trkpt lat="44.52411" lon="3.44583">
        <ele>882</ele>
        <time>2016-04-26T08:35:27Z</time>
      </trkpt>
      <trkpt lat="44.52434" lon="3.44623">
        <ele>877</ele>
        <time>2016-04-26T08:36:01Z</time>
      </trkpt>
      <trkpt lat="44.52458" lon="3.44622">
        <ele>881</ele>
        <time>2016-04-26T08:36:23Z</time>
      </trkpt>
      <trkpt lat="44.52466" lon="3.4463">
        <ele>878</ele>
        <time>2016-04-26T08:36:34Z</time>
      </trkpt>
      <trkpt lat="44.5247" lon="3.44635">
        <ele>875</ele>
        <time>2016-04-26T08:36:40Z</time>
      </trkpt>
      <trkpt lat="44.52477" lon="3.44646">
        <ele>874</ele>
        <time>2016-04-26T08:36:49Z</time>
      </trkpt>
      <trkpt lat="44.52484" lon="3.44656">
        <ele>875</ele>
        <time>2016-04-26T08:36:57Z</time>
      </trkpt>
      <trkpt lat="44.52487" lon="3.44661">
        <ele>875</ele>
        <time>2016-04-26T08:37:01Z</time>
      </trkpt>
      <trkpt lat="44.52501" lon="3.44691">
        <ele>870</ele>
        <time>2016-04-26T08:37:21Z</time>
      </trkpt>
      <trkpt lat="44.52507" lon="3.4471">
        <ele>872</ele>
        <time>2016-04-26T08:37:36Z</time>
      </trkpt>
      <trkpt lat="44.52515" lon="3.44729">
        <ele>871</ele>
        <time>2016-04-26T08:37:50Z</time>
      </trkpt>
      <trkpt lat="44.52519" lon="3.44735">
        <ele>872</ele>
        <time>2016-04-26T08:37:54Z</time>
      </trkpt>
      <trkpt lat="44.52519" lon="3.44749">
        <ele>871</ele>
        <time>2016-04-26T08:38:02Z</time>
      </trkpt>
      <trkpt lat="44.52521" lon="3.44755">
        <ele>872</ele>
        <time>2016-04-26T08:38:06Z</time>
      </trkpt>
      <trkpt lat="44.52524" lon="3.44768">
        <ele>873</ele>
        <time>2016-04-26T08:38:15Z</time>
      </trkpt>
      <trkpt lat="44.52531" lon="3.44787">
        <ele>873</ele>
        <time>2016-04-26T08:38:30Z</time>
      </trkpt>
      <trkpt lat="44.52536" lon="3.4479">
        <ele>874</ele>
        <time>2016-04-26T08:38:35Z</time>
      </trkpt>
      <trkpt lat="44.52541" lon="3.44792">
        <ele>873</ele>
        <time>2016-04-26T08:38:40Z</time>
      </trkpt>
      <trkpt lat="44.52545" lon="3.44794">
        <ele>873</ele>
        <time>2016-04-26T08:38:46Z</time>
      </trkpt>
      <trkpt lat="44.52548" lon="3.448">
        <ele>873</ele>
        <time>2016-04-26T08:38:51Z</time>
      </trkpt>
      <trkpt lat="44.52564" lon="3.44825">
        <ele>871</ele>
        <time>2016-04-26T08:39:12Z</time>
      </trkpt>
      <trkpt lat="44.52569" lon="3.44829">
        <ele>871</ele>
        <time>2016-04-26T08:39:17Z</time>
      </trkpt>
      <trkpt lat="44.52597" lon="3.44855">
        <ele>874</ele>
        <time>2016-04-26T08:39:50Z</time>
      </trkpt>
      <trkpt lat="44.52606" lon="3.44861">
        <ele>876</ele>
        <time>2016-04-26T08:40:00Z</time>
      </trkpt>
      <trkpt lat="44.52625" lon="3.44874">
        <ele>877</ele>
        <time>2016-04-26T08:40:19Z</time>
      </trkpt>
      <trkpt lat="44.52633" lon="3.44882">
        <ele>876</ele>
        <time>2016-04-26T08:40:30Z</time>
      </trkpt>
      <trkpt lat="44.52648" lon="3.44901">
        <ele>880</ele>
        <time>2016-04-26T08:40:51Z</time>
      </trkpt>
      <trkpt lat="44.5266" lon="3.44913">
        <ele>878</ele>
        <time>2016-04-26T08:41:06Z</time>
      </trkpt>
      <trkpt lat="44.52665" lon="3.44917">
        <ele>878</ele>
        <time>2016-04-26T08:41:11Z</time>
      </trkpt>
      <trkpt lat="44.52679" lon="3.44944">
        <ele>882</ele>
        <time>2016-04-26T08:41:36Z</time>
      </trkpt>
      <trkpt lat="44.52685" lon="3.44945">
        <ele>883</ele>
        <time>2016-04-26T08:41:41Z</time>
      </trkpt>
      <trkpt lat="44.52689" lon="3.4495">
        <ele>885</ele>
        <time>2016-04-26T08:41:46Z</time>
      </trkpt>
      <trkpt lat="44.52715" lon="3.44969">
        <ele>888</ele>
        <time>2016-04-26T08:42:17Z</time>
      </trkpt>
      <trkpt lat="44.52727" lon="3.4498">
        <ele>887</ele>
        <time>2016-04-26T08:42:32Z</time>
      </trkpt>
      <trkpt lat="44.52731" lon="3.44983">
        <ele>887</ele>
        <time>2016-04-26T08:42:36Z</time>
      </trkpt>
      <trkpt lat="44.52733" lon="3.44988">
        <ele>887</ele>
        <time>2016-04-26T08:42:40Z</time>
      </trkpt>
      <trkpt lat="44.52746" lon="3.4501">
        <ele>884</ele>
        <time>2016-04-26T08:42:57Z</time>
      </trkpt>
      <trkpt lat="44.52752" lon="3.45021">
        <ele>883</ele>
        <time>2016-04-26T08:43:06Z</time>
      </trkpt>
      <trkpt lat="44.52754" lon="3.45027">
        <ele>884</ele>
        <time>2016-04-26T08:43:11Z</time>
      </trkpt>
      <trkpt lat="44.52755" lon="3.45034">
        <ele>884</ele>
        <time>2016-04-26T08:43:16Z</time>
      </trkpt>
      <trkpt lat="44.52757" lon="3.4504">
        <ele>884</ele>
        <time>2016-04-26T08:43:21Z</time>
      </trkpt>
      <trkpt lat="44.52762" lon="3.45053">
        <ele>884</ele>
        <time>2016-04-26T08:43:34Z</time>
      </trkpt>
      <trkpt lat="44.52767" lon="3.45064">
        <ele>884</ele>
        <time>2016-04-26T08:43:42Z</time>
      </trkpt>
      <trkpt lat="44.5277" lon="3.45076">
        <ele>884</ele>
        <time>2016-04-26T08:43:59Z</time>
      </trkpt>
      <trkpt lat="44.52772" lon="3.45078">
        <ele>885</ele>
        <time>2016-04-26T08:44:05Z</time>
      </trkpt>
      <trkpt lat="44.52773" lon="3.45084">
        <ele>885</ele>
        <time>2016-04-26T08:44:10Z</time>
      </trkpt>
      <trkpt lat="44.52773" lon="3.45091">
        <ele>885</ele>
        <time>2016-04-26T08:44:15Z</time>
      </trkpt>
      <trkpt lat="44.52771" lon="3.45097">
        <ele>886</ele>
        <time>2016-04-26T08:44:20Z</time>
      </trkpt>
      <trkpt lat="44.52769" lon="3.45099">
        <ele>886</ele>
        <time>2016-04-26T08:44:26Z</time>
      </trkpt>
      <trkpt lat="44.52764" lon="3.45119">
        <ele>890</ele>
        <time>2016-04-26T08:44:43Z</time>
      </trkpt>
      <trkpt lat="44.52764" lon="3.45125">
        <ele>890</ele>
        <time>2016-04-26T08:44:50Z</time>
      </trkpt>
      <trkpt lat="44.52766" lon="3.45131">
        <ele>891</ele>
        <time>2016-04-26T08:44:56Z</time>
      </trkpt>
      <trkpt lat="44.52768" lon="3.45144">
        <ele>889</ele>
        <time>2016-04-26T08:45:13Z</time>
      </trkpt>
      <trkpt lat="44.52775" lon="3.45155">
        <ele>890</ele>
        <time>2016-04-26T08:45:24Z</time>
      </trkpt>
      <trkpt lat="44.52776" lon="3.45162">
        <ele>890</ele>
        <time>2016-04-26T08:45:29Z</time>
      </trkpt>
      <trkpt lat="44.52776" lon="3.45168">
        <ele>891</ele>
        <time>2016-04-26T08:45:33Z</time>
      </trkpt>
      <trkpt lat="44.52776" lon="3.45175">
        <ele>891</ele>
        <time>2016-04-26T08:45:37Z</time>
      </trkpt>
      <trkpt lat="44.52777" lon="3.45182">
        <ele>890</ele>
        <time>2016-04-26T08:45:42Z</time>
      </trkpt>
      <trkpt lat="44.5278" lon="3.45189">
        <ele>890</ele>
        <time>2016-04-26T08:45:46Z</time>
      </trkpt>
      <trkpt lat="44.52782" lon="3.45203">
        <ele>889</ele>
        <time>2016-04-26T08:45:54Z</time>
      </trkpt>
      <trkpt lat="44.52791" lon="3.45219">
        <ele>891</ele>
        <time>2016-04-26T08:46:06Z</time>
      </trkpt>
      <trkpt lat="44.52796" lon="3.45238">
        <ele>891</ele>
        <time>2016-04-26T08:46:19Z</time>
      </trkpt>
      <trkpt lat="44.52806" lon="3.45264">
        <ele>893</ele>
        <time>2016-04-26T08:46:35Z</time>
      </trkpt>
      <trkpt lat="44.52809" lon="3.4527">
        <ele>892</ele>
        <time>2016-04-26T08:46:39Z</time>
      </trkpt>
      <trkpt lat="44.52812" lon="3.45276">
        <ele>893</ele>
        <time>2016-04-26T08:46:43Z</time>
      </trkpt>
      <trkpt lat="44.52821" lon="3.45292">
        <ele>892</ele>
        <time>2016-04-26T08:46:56Z</time>
      </trkpt>
      <trkpt lat="44.52819" lon="3.45292">
        <ele>892</ele>
        <time>2016-04-26T08:48:49Z</time>
      </trkpt>
      <trkpt lat="44.52819" lon="3.45297">
        <ele>893</ele>
        <time>2016-04-26T08:51:15Z</time>
      </trkpt>
      <trkpt lat="44.52823" lon="3.45301">
        <ele>893</ele>
        <time>2016-04-26T08:51:59Z</time>
      </trkpt>
      <trkpt lat="44.52839" lon="3.45308">
        <ele>895</ele>
        <time>2016-04-26T08:52:11Z</time>
      </trkpt>
      <trkpt lat="44.52843" lon="3.45313">
        <ele>895</ele>
        <time>2016-04-26T08:52:25Z</time>
      </trkpt>
      <trkpt lat="44.52845" lon="3.4532">
        <ele>894</ele>
        <time>2016-04-26T08:52:32Z</time>
      </trkpt>
      <trkpt lat="44.52851" lon="3.45368">
        <ele>892</ele>
        <time>2016-04-26T08:53:03Z</time>
      </trkpt>
      <trkpt lat="44.5285" lon="3.45376">
        <ele>892</ele>
        <time>2016-04-26T08:53:08Z</time>
      </trkpt>
      <trkpt lat="44.5285" lon="3.45383">
        <ele>891</ele>
        <time>2016-04-26T08:53:13Z</time>
      </trkpt>
      <trkpt lat="44.52851" lon="3.4539">
        <ele>892</ele>
        <time>2016-04-26T08:53:17Z</time>
      </trkpt>
      <trkpt lat="44.52851" lon="3.45403">
        <ele>893</ele>
        <time>2016-04-26T08:53:25Z</time>
      </trkpt>
      <trkpt lat="44.52851" lon="3.45416">
        <ele>893</ele>
        <time>2016-04-26T08:53:34Z</time>
      </trkpt>
      <trkpt lat="44.52851" lon="3.45457">
        <ele>897</ele>
        <time>2016-04-26T08:54:05Z</time>
      </trkpt>
      <trkpt lat="44.52852" lon="3.45464">
        <ele>898</ele>
        <time>2016-04-26T08:54:11Z</time>
      </trkpt>
      <trkpt lat="44.52855" lon="3.45513">
        <ele>900</ele>
        <time>2016-04-26T08:54:45Z</time>
      </trkpt>
      <trkpt lat="44.52854" lon="3.45534">
        <ele>901</ele>
        <time>2016-04-26T08:54:57Z</time>
      </trkpt>
      <trkpt lat="44.52857" lon="3.45575">
        <ele>899</ele>
        <time>2016-04-26T08:55:21Z</time>
      </trkpt>
      <trkpt lat="44.52858" lon="3.4563">
        <ele>899</ele>
        <time>2016-04-26T08:55:53Z</time>
      </trkpt>
      <trkpt lat="44.52858" lon="3.45637">
        <ele>899</ele>
        <time>2016-04-26T08:55:57Z</time>
      </trkpt>
      <trkpt lat="44.52858" lon="3.45644">
        <ele>899</ele>
        <time>2016-04-26T08:56:01Z</time>
      </trkpt>
      <trkpt lat="44.52858" lon="3.45657">
        <ele>899</ele>
        <time>2016-04-26T08:56:09Z</time>
      </trkpt>
      <trkpt lat="44.52859" lon="3.45664">
        <ele>898</ele>
        <time>2016-04-26T08:56:13Z</time>
      </trkpt>
      <trkpt lat="44.52858" lon="3.45671">
        <ele>898</ele>
        <time>2016-04-26T08:56:17Z</time>
      </trkpt>
      <trkpt lat="44.52858" lon="3.45677">
        <ele>898</ele>
        <time>2016-04-26T08:56:21Z</time>
      </trkpt>
      <trkpt lat="44.52855" lon="3.45699">
        <ele>896</ele>
        <time>2016-04-26T08:56:34Z</time>
      </trkpt>
      <trkpt lat="44.52861" lon="3.45712">
        <ele>897</ele>
        <time>2016-04-26T08:56:42Z</time>
      </trkpt>
      <trkpt lat="44.5286" lon="3.45719">
        <ele>896</ele>
        <time>2016-04-26T08:56:46Z</time>
      </trkpt>
      <trkpt lat="44.52859" lon="3.45725">
        <ele>896</ele>
        <time>2016-04-26T08:56:50Z</time>
      </trkpt>
      <trkpt lat="44.52859" lon="3.45732">
        <ele>896</ele>
        <time>2016-04-26T08:56:54Z</time>
      </trkpt>
      <trkpt lat="44.52859" lon="3.45738">
        <ele>896</ele>
        <time>2016-04-26T08:56:58Z</time>
      </trkpt>
      <trkpt lat="44.52858" lon="3.45745">
        <ele>895</ele>
        <time>2016-04-26T08:57:02Z</time>
      </trkpt>
      <trkpt lat="44.52859" lon="3.45758">
        <ele>894</ele>
        <time>2016-04-26T08:57:10Z</time>
      </trkpt>
      <trkpt lat="44.5286" lon="3.45765">
        <ele>893</ele>
        <time>2016-04-26T08:57:14Z</time>
      </trkpt>
      <trkpt lat="44.52864" lon="3.45777">
        <ele>894</ele>
        <time>2016-04-26T08:57:22Z</time>
      </trkpt>
      <trkpt lat="44.52864" lon="3.45818">
        <ele>892</ele>
        <time>2016-04-26T08:57:49Z</time>
      </trkpt>
      <trkpt lat="44.5286" lon="3.45832">
        <ele>891</ele>
        <time>2016-04-26T08:57:59Z</time>
      </trkpt>
      <trkpt lat="44.52858" lon="3.45838">
        <ele>891</ele>
        <time>2016-04-26T08:58:04Z</time>
      </trkpt>
      <trkpt lat="44.52855" lon="3.45844">
        <ele>891</ele>
        <time>2016-04-26T08:58:09Z</time>
      </trkpt>
      <trkpt lat="44.52853" lon="3.45851">
        <ele>890</ele>
        <time>2016-04-26T08:58:14Z</time>
      </trkpt>
      <trkpt lat="44.52853" lon="3.45858">
        <ele>889</ele>
        <time>2016-04-26T08:58:19Z</time>
      </trkpt>
      <trkpt lat="44.52845" lon="3.45876">
        <ele>888</ele>
        <time>2016-04-26T08:58:32Z</time>
      </trkpt>
      <trkpt lat="44.52842" lon="3.45881">
        <ele>888</ele>
        <time>2016-04-26T08:58:37Z</time>
      </trkpt>
      <trkpt lat="44.52817" lon="3.45917">
        <ele>880</ele>
        <time>2016-04-26T08:59:11Z</time>
      </trkpt>
      <trkpt lat="44.52811" lon="3.45929">
        <ele>878</ele>
        <time>2016-04-26T08:59:20Z</time>
      </trkpt>
      <trkpt lat="44.52808" lon="3.45934">
        <ele>877</ele>
        <time>2016-04-26T08:59:25Z</time>
      </trkpt>
      <trkpt lat="44.52798" lon="3.45957">
        <ele>877</ele>
        <time>2016-04-26T08:59:49Z</time>
      </trkpt>
      <trkpt lat="44.52782" lon="3.45977">
        <ele>875</ele>
        <time>2016-04-26T09:00:09Z</time>
      </trkpt>
      <trkpt lat="44.5278" lon="3.45983">
        <ele>876</ele>
        <time>2016-04-26T09:00:13Z</time>
      </trkpt>
      <trkpt lat="44.52778" lon="3.4599">
        <ele>876</ele>
        <time>2016-04-26T09:00:18Z</time>
      </trkpt>
      <trkpt lat="44.52771" lon="3.46">
        <ele>876</ele>
        <time>2016-04-26T09:00:26Z</time>
      </trkpt>
      <trkpt lat="44.52768" lon="3.46005">
        <ele>876</ele>
        <time>2016-04-26T09:00:30Z</time>
      </trkpt>
      <trkpt lat="44.52765" lon="3.4601">
        <ele>875</ele>
        <time>2016-04-26T09:00:34Z</time>
      </trkpt>
      <trkpt lat="44.52758" lon="3.46021">
        <ele>876</ele>
        <time>2016-04-26T09:00:44Z</time>
      </trkpt>
      <trkpt lat="44.52754" lon="3.46026">
        <ele>876</ele>
        <time>2016-04-26T09:00:48Z</time>
      </trkpt>
      <trkpt lat="44.52751" lon="3.4603">
        <ele>877</ele>
        <time>2016-04-26T09:00:52Z</time>
      </trkpt>
      <trkpt lat="44.52749" lon="3.46036">
        <ele>877</ele>
        <time>2016-04-26T09:00:57Z</time>
      </trkpt>
      <trkpt lat="44.52746" lon="3.46051">
        <ele>876</ele>
        <time>2016-04-26T09:01:07Z</time>
      </trkpt>
      <trkpt lat="44.52744" lon="3.46064">
        <ele>876</ele>
        <time>2016-04-26T09:01:16Z</time>
      </trkpt>
      <trkpt lat="44.52744" lon="3.46071">
        <ele>875</ele>
        <time>2016-04-26T09:01:21Z</time>
      </trkpt>
      <trkpt lat="44.52744" lon="3.46078">
        <ele>876</ele>
        <time>2016-04-26T09:01:26Z</time>
      </trkpt>
      <trkpt lat="44.52742" lon="3.46085">
        <ele>876</ele>
        <time>2016-04-26T09:01:31Z</time>
      </trkpt>
      <trkpt lat="44.52735" lon="3.46097">
        <ele>874</ele>
        <time>2016-04-26T09:01:41Z</time>
      </trkpt>
      <trkpt lat="44.52735" lon="3.46104">
        <ele>873</ele>
        <time>2016-04-26T09:01:46Z</time>
      </trkpt>
      <trkpt lat="44.52732" lon="3.46109">
        <ele>872</ele>
        <time>2016-04-26T09:01:51Z</time>
      </trkpt>
      <trkpt lat="44.52713" lon="3.46142">
        <ele>868</ele>
        <time>2016-04-26T09:02:23Z</time>
      </trkpt>
      <trkpt lat="44.52706" lon="3.46152">
        <ele>868</ele>
        <time>2016-04-26T09:02:33Z</time>
      </trkpt>
      <trkpt lat="44.52703" lon="3.46157">
        <ele>868</ele>
        <time>2016-04-26T09:02:38Z</time>
      </trkpt>
      <trkpt lat="44.52695" lon="3.46167">
        <ele>866</ele>
        <time>2016-04-26T09:02:48Z</time>
      </trkpt>
      <trkpt lat="44.52685" lon="3.46183">
        <ele>865</ele>
        <time>2016-04-26T09:03:03Z</time>
      </trkpt>
      <trkpt lat="44.52671" lon="3.46203">
        <ele>861</ele>
        <time>2016-04-26T09:03:24Z</time>
      </trkpt>
      <trkpt lat="44.52656" lon="3.46221">
        <ele>862</ele>
        <time>2016-04-26T09:03:43Z</time>
      </trkpt>
      <trkpt lat="44.52653" lon="3.46225">
        <ele>863</ele>
        <time>2016-04-26T09:03:48Z</time>
      </trkpt>
      <trkpt lat="44.52646" lon="3.46236">
        <ele>863</ele>
        <time>2016-04-26T09:03:58Z</time>
      </trkpt>
      <trkpt lat="44.52631" lon="3.46254">
        <ele>859</ele>
        <time>2016-04-26T09:04:18Z</time>
      </trkpt>
      <trkpt lat="44.52627" lon="3.46259">
        <ele>860</ele>
        <time>2016-04-26T09:04:23Z</time>
      </trkpt>
      <trkpt lat="44.52623" lon="3.46263">
        <ele>859</ele>
        <time>2016-04-26T09:04:29Z</time>
      </trkpt>
      <trkpt lat="44.52616" lon="3.46273">
        <ele>857</ele>
        <time>2016-04-26T09:04:41Z</time>
      </trkpt>
      <trkpt lat="44.52614" lon="3.4628">
        <ele>857</ele>
        <time>2016-04-26T09:04:47Z</time>
      </trkpt>
      <trkpt lat="44.52607" lon="3.46288">
        <ele>855</ele>
        <time>2016-04-26T09:04:58Z</time>
      </trkpt>
      <trkpt lat="44.52603" lon="3.46301">
        <ele>853</ele>
        <time>2016-04-26T09:05:08Z</time>
      </trkpt>
      <trkpt lat="44.52598" lon="3.46303">
        <ele>852</ele>
        <time>2016-04-26T09:05:12Z</time>
      </trkpt>
      <trkpt lat="44.52594" lon="3.46307">
        <ele>852</ele>
        <time>2016-04-26T09:05:17Z</time>
      </trkpt>
      <trkpt lat="44.52591" lon="3.46312">
        <ele>852</ele>
        <time>2016-04-26T09:05:23Z</time>
      </trkpt>
      <trkpt lat="44.52589" lon="3.46318">
        <ele>852</ele>
        <time>2016-04-26T09:05:29Z</time>
      </trkpt>
      <trkpt lat="44.52573" lon="3.46344">
        <ele>852</ele>
        <time>2016-04-26T09:05:56Z</time>
      </trkpt>
      <trkpt lat="44.52564" lon="3.46359">
        <ele>848</ele>
        <time>2016-04-26T09:06:14Z</time>
      </trkpt>
      <trkpt lat="44.52558" lon="3.46369">
        <ele>848</ele>
        <time>2016-04-26T09:06:25Z</time>
      </trkpt>
      <trkpt lat="44.52554" lon="3.46375">
        <ele>848</ele>
        <time>2016-04-26T09:06:29Z</time>
      </trkpt>
      <trkpt lat="44.5255" lon="3.46379">
        <ele>848</ele>
        <time>2016-04-26T09:06:33Z</time>
      </trkpt>
      <trkpt lat="44.52541" lon="3.46393">
        <ele>848</ele>
        <time>2016-04-26T09:06:47Z</time>
      </trkpt>
      <trkpt lat="44.52538" lon="3.464">
        <ele>848</ele>
        <time>2016-04-26T09:06:52Z</time>
      </trkpt>
      <trkpt lat="44.52536" lon="3.46406">
        <ele>848</ele>
        <time>2016-04-26T09:06:57Z</time>
      </trkpt>
      <trkpt lat="44.52513" lon="3.46433">
        <ele>843</ele>
        <time>2016-04-26T09:07:23Z</time>
      </trkpt>
      <trkpt lat="44.52511" lon="3.46439">
        <ele>843</ele>
        <time>2016-04-26T09:07:28Z</time>
      </trkpt>
      <trkpt lat="44.52492" lon="3.46464">
        <ele>841</ele>
        <time>2016-04-26T09:07:52Z</time>
      </trkpt>
      <trkpt lat="44.52488" lon="3.46469">
        <ele>841</ele>
        <time>2016-04-26T09:07:58Z</time>
      </trkpt>
      <trkpt lat="44.52479" lon="3.46484">
        <ele>837</ele>
        <time>2016-04-26T09:08:17Z</time>
      </trkpt>
      <trkpt lat="44.52468" lon="3.46497">
        <ele>836</ele>
        <time>2016-04-26T09:08:31Z</time>
      </trkpt>
      <trkpt lat="44.5246" lon="3.46506">
        <ele>837</ele>
        <time>2016-04-26T09:08:42Z</time>
      </trkpt>
      <trkpt lat="44.52458" lon="3.46513">
        <ele>837</ele>
        <time>2016-04-26T09:08:48Z</time>
      </trkpt>
      <trkpt lat="44.52455" lon="3.46517">
        <ele>838</ele>
        <time>2016-04-26T09:08:53Z</time>
      </trkpt>
      <trkpt lat="44.5245" lon="3.46521">
        <ele>838</ele>
        <time>2016-04-26T09:08:58Z</time>
      </trkpt>
      <trkpt lat="44.52432" lon="3.46555">
        <ele>835</ele>
        <time>2016-04-26T09:09:28Z</time>
      </trkpt>
      <trkpt lat="44.52421" lon="3.46579">
        <ele>832</ele>
        <time>2016-04-26T09:09:48Z</time>
      </trkpt>
      <trkpt lat="44.52419" lon="3.46585">
        <ele>832</ele>
        <time>2016-04-26T09:09:53Z</time>
      </trkpt>
      <trkpt lat="44.52414" lon="3.46606">
        <ele>830</ele>
        <time>2016-04-26T09:10:09Z</time>
      </trkpt>
      <trkpt lat="44.52413" lon="3.46613">
        <ele>829</ele>
        <time>2016-04-26T09:10:15Z</time>
      </trkpt>
      <trkpt lat="44.52406" lon="3.46622">
        <ele>826</ele>
        <time>2016-04-26T09:10:27Z</time>
      </trkpt>
      <trkpt lat="44.52391" lon="3.46652">
        <ele>820</ele>
        <time>2016-04-26T09:10:58Z</time>
      </trkpt>
      <trkpt lat="44.52381" lon="3.46667">
        <ele>819</ele>
        <time>2016-04-26T09:11:16Z</time>
      </trkpt>
      <trkpt lat="44.5238" lon="3.46673">
        <ele>818</ele>
        <time>2016-04-26T09:11:23Z</time>
      </trkpt>
      <trkpt lat="44.5237" lon="3.46688">
        <ele>814</ele>
        <time>2016-04-26T09:11:47Z</time>
      </trkpt>
      <trkpt lat="44.52366" lon="3.46693">
        <ele>814</ele>
        <time>2016-04-26T09:11:53Z</time>
      </trkpt>
      <trkpt lat="44.52361" lon="3.46696">
        <ele>814</ele>
        <time>2016-04-26T09:12:00Z</time>
      </trkpt>
      <trkpt lat="44.52358" lon="3.467">
        <ele>814</ele>
        <time>2016-04-26T09:12:07Z</time>
      </trkpt>
      <trkpt lat="44.52351" lon="3.46711">
        <ele>813</ele>
        <time>2016-04-26T09:12:18Z</time>
      </trkpt>
      <trkpt lat="44.52336" lon="3.46731">
        <ele>809</ele>
        <time>2016-04-26T09:12:39Z</time>
      </trkpt>
      <trkpt lat="44.5233" lon="3.46742">
        <ele>810</ele>
        <time>2016-04-26T09:12:50Z</time>
      </trkpt>
      <trkpt lat="44.52319" lon="3.46758">
        <ele>807</ele>
        <time>2016-04-26T09:13:10Z</time>
      </trkpt>
      <trkpt lat="44.52317" lon="3.46763">
        <ele>807</ele>
        <time>2016-04-26T09:13:19Z</time>
      </trkpt>
      <trkpt lat="44.52319" lon="3.4677">
        <ele>806</ele>
        <time>2016-04-26T09:13:25Z</time>
      </trkpt>
      <trkpt lat="44.52322" lon="3.46774">
        <ele>806</ele>
        <time>2016-04-26T09:13:29Z</time>
      </trkpt>
      <trkpt lat="44.52327" lon="3.46774">
        <ele>807</ele>
        <time>2016-04-26T09:13:36Z</time>
      </trkpt>
      <trkpt lat="44.52332" lon="3.46772">
        <ele>808</ele>
        <time>2016-04-26T09:13:43Z</time>
      </trkpt>
      <trkpt lat="44.52345" lon="3.46764">
        <ele>809</ele>
        <time>2016-04-26T09:14:02Z</time>
      </trkpt>
      <trkpt lat="44.52359" lon="3.4676">
        <ele>806</ele>
        <time>2016-04-26T09:14:19Z</time>
      </trkpt>
      <trkpt lat="44.52364" lon="3.46764">
        <ele>805</ele>
        <time>2016-04-26T09:14:25Z</time>
      </trkpt>
      <trkpt lat="44.52364" lon="3.46771">
        <ele>804</ele>
        <time>2016-04-26T09:14:30Z</time>
      </trkpt>
      <trkpt lat="44.52355" lon="3.4679">
        <ele>801</ele>
        <time>2016-04-26T09:14:45Z</time>
      </trkpt>
      <trkpt lat="44.52339" lon="3.46823">
        <ele>795</ele>
        <time>2016-04-26T09:15:17Z</time>
      </trkpt>
      <trkpt lat="44.52334" lon="3.46834">
        <ele>794</ele>
        <time>2016-04-26T09:15:30Z</time>
      </trkpt>
      <trkpt lat="44.52319" lon="3.46869">
        <ele>788</ele>
        <time>2016-04-26T09:16:03Z</time>
      </trkpt>
      <trkpt lat="44.52317" lon="3.46876">
        <ele>789</ele>
        <time>2016-04-26T09:16:09Z</time>
      </trkpt>
      <trkpt lat="44.52311" lon="3.46885">
        <ele>787</ele>
        <time>2016-04-26T09:16:23Z</time>
      </trkpt>
      <trkpt lat="44.5231" lon="3.4689">
        <ele>787</ele>
        <time>2016-04-26T09:16:31Z</time>
      </trkpt>
      <trkpt lat="44.52308" lon="3.46896">
        <ele>786</ele>
        <time>2016-04-26T09:17:05Z</time>
      </trkpt>
      <trkpt lat="44.52307" lon="3.46902">
        <ele>787</ele>
        <time>2016-04-26T09:17:39Z</time>
      </trkpt>
      <trkpt lat="44.52304" lon="3.46908">
        <ele>783</ele>
        <time>2016-04-26T09:18:24Z</time>
      </trkpt>
      <trkpt lat="44.52301" lon="3.46913">
        <ele>783</ele>
        <time>2016-04-26T09:18:29Z</time>
      </trkpt>
      <trkpt lat="44.52299" lon="3.46919">
        <ele>783</ele>
        <time>2016-04-26T09:18:34Z</time>
      </trkpt>
      <trkpt lat="44.52296" lon="3.46925">
        <ele>782</ele>
        <time>2016-04-26T09:18:39Z</time>
      </trkpt>
      <trkpt lat="44.52294" lon="3.4693">
        <ele>781</ele>
        <time>2016-04-26T09:18:44Z</time>
      </trkpt>
      <trkpt lat="44.52293" lon="3.46937">
        <ele>782</ele>
        <time>2016-04-26T09:18:49Z</time>
      </trkpt>
      <trkpt lat="44.5229" lon="3.46942">
        <ele>782</ele>
        <time>2016-04-26T09:18:54Z</time>
      </trkpt>
      <trkpt lat="44.52285" lon="3.46954">
        <ele>781</ele>
        <time>2016-04-26T09:19:05Z</time>
      </trkpt>
      <trkpt lat="44.52284" lon="3.46961">
        <ele>780</ele>
        <time>2016-04-26T09:19:11Z</time>
      </trkpt>
      <trkpt lat="44.5228" lon="3.46966">
        <ele>780</ele>
        <time>2016-04-26T09:19:16Z</time>
      </trkpt>
      <trkpt lat="44.52276" lon="3.46971">
        <ele>780</ele>
        <time>2016-04-26T09:19:21Z</time>
      </trkpt>
      <trkpt lat="44.52274" lon="3.46978">
        <ele>780</ele>
        <time>2016-04-26T09:19:27Z</time>
      </trkpt>
      <trkpt lat="44.5227" lon="3.46983">
        <ele>778</ele>
        <time>2016-04-26T09:19:32Z</time>
      </trkpt>
      <trkpt lat="44.52254" lon="3.47019">
        <ele>775</ele>
        <time>2016-04-26T09:20:03Z</time>
      </trkpt>
      <trkpt lat="44.5225" lon="3.47023">
        <ele>775</ele>
        <time>2016-04-26T09:20:07Z</time>
      </trkpt>
      <trkpt lat="44.52247" lon="3.47029">
        <ele>776</ele>
        <time>2016-04-26T09:20:12Z</time>
      </trkpt>
      <trkpt lat="44.52228" lon="3.47062">
        <ele>770</ele>
        <time>2016-04-26T09:20:42Z</time>
      </trkpt>
      <trkpt lat="44.52224" lon="3.47066">
        <ele>768</ele>
        <time>2016-04-26T09:20:47Z</time>
      </trkpt>
      <trkpt lat="44.52219" lon="3.47077">
        <ele>767</ele>
        <time>2016-04-26T09:20:57Z</time>
      </trkpt>
      <trkpt lat="44.52216" lon="3.47082">
        <ele>767</ele>
        <time>2016-04-26T09:21:03Z</time>
      </trkpt>
      <trkpt lat="44.52208" lon="3.47092">
        <ele>765</ele>
        <time>2016-04-26T09:21:14Z</time>
      </trkpt>
      <trkpt lat="44.52206" lon="3.47098">
        <ele>765</ele>
        <time>2016-04-26T09:21:19Z</time>
      </trkpt>
      <trkpt lat="44.52202" lon="3.47104">
        <ele>765</ele>
        <time>2016-04-26T09:21:24Z</time>
      </trkpt>
      <trkpt lat="44.52201" lon="3.47111">
        <ele>766</ele>
        <time>2016-04-26T09:21:34Z</time>
      </trkpt>
      <trkpt lat="44.52192" lon="3.47127">
        <ele>761</ele>
        <time>2016-04-26T09:22:26Z</time>
      </trkpt>
      <trkpt lat="44.52189" lon="3.47132">
        <ele>761</ele>
        <time>2016-04-26T09:22:30Z</time>
      </trkpt>
      <trkpt lat="44.52172" lon="3.47167">
        <ele>759</ele>
        <time>2016-04-26T09:22:56Z</time>
      </trkpt>
      <trkpt lat="44.5217" lon="3.47173">
        <ele>759</ele>
        <time>2016-04-26T09:23:03Z</time>
      </trkpt>
      <trkpt lat="44.52166" lon="3.47178">
        <ele>759</ele>
        <time>2016-04-26T09:23:08Z</time>
      </trkpt>
      <trkpt lat="44.52159" lon="3.47188">
        <ele>758</ele>
        <time>2016-04-26T09:23:16Z</time>
      </trkpt>
      <trkpt lat="44.52157" lon="3.47194">
        <ele>758</ele>
        <time>2016-04-26T09:23:20Z</time>
      </trkpt>
      <trkpt lat="44.52152" lon="3.47208">
        <ele>757</ele>
        <time>2016-04-26T09:23:30Z</time>
      </trkpt>
      <trkpt lat="44.52139" lon="3.47228">
        <ele>758</ele>
        <time>2016-04-26T09:23:44Z</time>
      </trkpt>
      <trkpt lat="44.5213" lon="3.47245">
        <ele>757</ele>
        <time>2016-04-26T09:23:56Z</time>
      </trkpt>
      <trkpt lat="44.52127" lon="3.4725">
        <ele>757</ele>
        <time>2016-04-26T09:24:00Z</time>
      </trkpt>
      <trkpt lat="44.52118" lon="3.47269">
        <ele>754</ele>
        <time>2016-04-26T09:24:12Z</time>
      </trkpt>
      <trkpt lat="44.5211" lon="3.47279">
        <ele>753</ele>
        <time>2016-04-26T09:24:20Z</time>
      </trkpt>
      <trkpt lat="44.52104" lon="3.4729">
        <ele>753</ele>
        <time>2016-04-26T09:24:28Z</time>
      </trkpt>
      <trkpt lat="44.52097" lon="3.473">
        <ele>752</ele>
        <time>2016-04-26T09:24:36Z</time>
      </trkpt>
      <trkpt lat="44.5209" lon="3.47321">
        <ele>751</ele>
        <time>2016-04-26T09:24:48Z</time>
      </trkpt>
      <trkpt lat="44.52083" lon="3.47334">
        <ele>752</ele>
        <time>2016-04-26T09:24:56Z</time>
      </trkpt>
      <trkpt lat="44.5208" lon="3.4734">
        <ele>751</ele>
        <time>2016-04-26T09:25:00Z</time>
      </trkpt>
      <trkpt lat="44.52077" lon="3.47346">
        <ele>749</ele>
        <time>2016-04-26T09:25:04Z</time>
      </trkpt>
      <trkpt lat="44.52071" lon="3.47364">
        <ele>748</ele>
        <time>2016-04-26T09:25:16Z</time>
      </trkpt>
      <trkpt lat="44.52068" lon="3.47371">
        <ele>747</ele>
        <time>2016-04-26T09:25:21Z</time>
      </trkpt>
      <trkpt lat="44.52062" lon="3.47391">
        <ele>746</ele>
        <time>2016-04-26T09:25:33Z</time>
      </trkpt>
      <trkpt lat="44.52059" lon="3.47398">
        <ele>746</ele>
        <time>2016-04-26T09:25:37Z</time>
      </trkpt>
      <trkpt lat="44.52058" lon="3.47404">
        <ele>746</ele>
        <time>2016-04-26T09:25:41Z</time>
      </trkpt>
      <trkpt lat="44.52056" lon="3.47411">
        <ele>746</ele>
        <time>2016-04-26T09:25:45Z</time>
      </trkpt>
      <trkpt lat="44.5205" lon="3.47422">
        <ele>746</ele>
        <time>2016-04-26T09:25:54Z</time>
      </trkpt>
      <trkpt lat="44.52048" lon="3.47428">
        <ele>747</ele>
        <time>2016-04-26T09:25:58Z</time>
      </trkpt>
      <trkpt lat="44.52046" lon="3.47435">
        <ele>747</ele>
        <time>2016-04-26T09:26:03Z</time>
      </trkpt>
      <trkpt lat="44.52025" lon="3.47485">
        <ele>742</ele>
        <time>2016-04-26T09:26:34Z</time>
      </trkpt>
      <trkpt lat="44.5201" lon="3.47502">
        <ele>737</ele>
        <time>2016-04-26T09:26:52Z</time>
      </trkpt>
      <trkpt lat="44.52005" lon="3.47505">
        <ele>736</ele>
        <time>2016-04-26T09:26:57Z</time>
      </trkpt>
      <trkpt lat="44.51975" lon="3.47525">
        <ele>728</ele>
        <time>2016-04-26T09:27:29Z</time>
      </trkpt>
      <trkpt lat="44.51956" lon="3.47531">
        <ele>725</ele>
        <time>2016-04-26T09:27:46Z</time>
      </trkpt>
      <trkpt lat="44.51953" lon="3.47536">
        <ele>725</ele>
        <time>2016-04-26T09:27:51Z</time>
      </trkpt>
      <trkpt lat="44.51953" lon="3.47542">
        <ele>725</ele>
        <time>2016-04-26T09:27:56Z</time>
      </trkpt>
      <trkpt lat="44.5195" lon="3.47549">
        <ele>725</ele>
        <time>2016-04-26T09:28:00Z</time>
      </trkpt>
      <trkpt lat="44.51952" lon="3.47564">
        <ele>726</ele>
        <time>2016-04-26T09:28:10Z</time>
      </trkpt>
      <trkpt lat="44.51957" lon="3.47591">
        <ele>723</ele>
        <time>2016-04-26T09:28:26Z</time>
      </trkpt>
      <trkpt lat="44.51958" lon="3.47598">
        <ele>723</ele>
        <time>2016-04-26T09:28:30Z</time>
      </trkpt>
      <trkpt lat="44.51958" lon="3.47655">
        <ele>715</ele>
        <time>2016-04-26T09:29:02Z</time>
      </trkpt>
      <trkpt lat="44.51957" lon="3.47662">
        <ele>714</ele>
        <time>2016-04-26T09:29:06Z</time>
      </trkpt>
      <trkpt lat="44.51955" lon="3.47669">
        <ele>714</ele>
        <time>2016-04-26T09:29:10Z</time>
      </trkpt>
      <trkpt lat="44.51954" lon="3.47676">
        <ele>715</ele>
        <time>2016-04-26T09:29:14Z</time>
      </trkpt>
      <trkpt lat="44.51943" lon="3.47713">
        <ele>713</ele>
        <time>2016-04-26T09:29:39Z</time>
      </trkpt>
      <trkpt lat="44.51942" lon="3.47719">
        <ele>713</ele>
        <time>2016-04-26T09:29:43Z</time>
      </trkpt>
      <trkpt lat="44.5194" lon="3.47726">
        <ele>713</ele>
        <time>2016-04-26T09:29:48Z</time>
      </trkpt>
      <trkpt lat="44.51934" lon="3.47753">
        <ele>712</ele>
        <time>2016-04-26T09:30:06Z</time>
      </trkpt>
      <trkpt lat="44.51933" lon="3.4776">
        <ele>712</ele>
        <time>2016-04-26T09:30:10Z</time>
      </trkpt>
      <trkpt lat="44.51931" lon="3.47767">
        <ele>712</ele>
        <time>2016-04-26T09:30:14Z</time>
      </trkpt>
      <trkpt lat="44.51929" lon="3.47774">
        <ele>711</ele>
        <time>2016-04-26T09:30:18Z</time>
      </trkpt>
      <trkpt lat="44.51923" lon="3.47793">
        <ele>711</ele>
        <time>2016-04-26T09:30:30Z</time>
      </trkpt>
      <trkpt lat="44.51921" lon="3.47799">
        <ele>711</ele>
        <time>2016-04-26T09:30:34Z</time>
      </trkpt>
      <trkpt lat="44.51919" lon="3.47805">
        <ele>711</ele>
        <time>2016-04-26T09:30:38Z</time>
      </trkpt>
      <trkpt lat="44.51912" lon="3.47822">
        <ele>711</ele>
        <time>2016-04-26T09:30:51Z</time>
      </trkpt>
      <trkpt lat="44.519" lon="3.47835">
        <ele>710</ele>
        <time>2016-04-26T09:31:03Z</time>
      </trkpt>
      <trkpt lat="44.51896" lon="3.4784">
        <ele>710</ele>
        <time>2016-04-26T09:31:07Z</time>
      </trkpt>
      <trkpt lat="44.51886" lon="3.47853">
        <ele>710</ele>
        <time>2016-04-26T09:31:19Z</time>
      </trkpt>
      <trkpt lat="44.51883" lon="3.47858">
        <ele>711</ele>
        <time>2016-04-26T09:31:23Z</time>
      </trkpt>
      <trkpt lat="44.5188" lon="3.47864">
        <ele>711</ele>
        <time>2016-04-26T09:31:27Z</time>
      </trkpt>
      <trkpt lat="44.51877" lon="3.47869">
        <ele>710</ele>
        <time>2016-04-26T09:31:31Z</time>
      </trkpt>
      <trkpt lat="44.51875" lon="3.47875">
        <ele>711</ele>
        <time>2016-04-26T09:31:36Z</time>
      </trkpt>
      <trkpt lat="44.5187" lon="3.47878">
        <ele>711</ele>
        <time>2016-04-26T09:31:41Z</time>
      </trkpt>
      <trkpt lat="44.51865" lon="3.47882">
        <ele>711</ele>
        <time>2016-04-26T09:31:46Z</time>
      </trkpt>
      <trkpt lat="44.51859" lon="3.47894">
        <ele>710</ele>
        <time>2016-04-26T09:31:55Z</time>
      </trkpt>
      <trkpt lat="44.51856" lon="3.47899">
        <ele>710</ele>
        <time>2016-04-26T09:31:59Z</time>
      </trkpt>
      <trkpt lat="44.51847" lon="3.47931">
        <ele>710</ele>
        <time>2016-04-26T09:32:20Z</time>
      </trkpt>
      <trkpt lat="44.51846" lon="3.47938">
        <ele>710</ele>
        <time>2016-04-26T09:32:24Z</time>
      </trkpt>
      <trkpt lat="44.51845" lon="3.47945">
        <ele>709</ele>
        <time>2016-04-26T09:32:28Z</time>
      </trkpt>
      <trkpt lat="44.51845" lon="3.47952">
        <ele>708</ele>
        <time>2016-04-26T09:32:33Z</time>
      </trkpt>
      <trkpt lat="44.51845" lon="3.4796">
        <ele>708</ele>
        <time>2016-04-26T09:32:38Z</time>
      </trkpt>
      <trkpt lat="44.51844" lon="3.47973">
        <ele>708</ele>
        <time>2016-04-26T09:32:47Z</time>
      </trkpt>
      <trkpt lat="44.51843" lon="3.47988">
        <ele>708</ele>
        <time>2016-04-26T09:32:55Z</time>
      </trkpt>
      <trkpt lat="44.51842" lon="3.47996">
        <ele>708</ele>
        <time>2016-04-26T09:32:59Z</time>
      </trkpt>
      <trkpt lat="44.51843" lon="3.48002">
        <ele>707</ele>
        <time>2016-04-26T09:33:03Z</time>
      </trkpt>
      <trkpt lat="44.51842" lon="3.48009">
        <ele>707</ele>
        <time>2016-04-26T09:33:07Z</time>
      </trkpt>
      <trkpt lat="44.51836" lon="3.48027">
        <ele>706</ele>
        <time>2016-04-26T09:33:19Z</time>
      </trkpt>
      <trkpt lat="44.5183" lon="3.48038">
        <ele>707</ele>
        <time>2016-04-26T09:33:29Z</time>
      </trkpt>
      <trkpt lat="44.51832" lon="3.48045">
        <ele>707</ele>
        <time>2016-04-26T09:33:34Z</time>
      </trkpt>
      <trkpt lat="44.51834" lon="3.48052">
        <ele>707</ele>
        <time>2016-04-26T09:33:38Z</time>
      </trkpt>
      <trkpt lat="44.5184" lon="3.48102">
        <ele>708</ele>
        <time>2016-04-26T09:34:09Z</time>
      </trkpt>
      <trkpt lat="44.51843" lon="3.48115">
        <ele>708</ele>
        <time>2016-04-26T09:34:17Z</time>
      </trkpt>
      <trkpt lat="44.51852" lon="3.48162">
        <ele>703</ele>
        <time>2016-04-26T09:34:46Z</time>
      </trkpt>
      <trkpt lat="44.51853" lon="3.48169">
        <ele>704</ele>
        <time>2016-04-26T09:34:50Z</time>
      </trkpt>
      <trkpt lat="44.51864" lon="3.48196">
        <ele>707</ele>
        <time>2016-04-26T09:35:09Z</time>
      </trkpt>
      <trkpt lat="44.51867" lon="3.48209">
        <ele>706</ele>
        <time>2016-04-26T09:35:17Z</time>
      </trkpt>
      <trkpt lat="44.51871" lon="3.48229">
        <ele>707</ele>
        <time>2016-04-26T09:35:29Z</time>
      </trkpt>
      <trkpt lat="44.51874" lon="3.4825">
        <ele>707</ele>
        <time>2016-04-26T09:35:41Z</time>
      </trkpt>
      <trkpt lat="44.51874" lon="3.48258">
        <ele>707</ele>
        <time>2016-04-26T09:35:45Z</time>
      </trkpt>
      <trkpt lat="44.5187" lon="3.48286">
        <ele>708</ele>
        <time>2016-04-26T09:36:01Z</time>
      </trkpt>
      <trkpt lat="44.51871" lon="3.483">
        <ele>707</ele>
        <time>2016-04-26T09:36:09Z</time>
      </trkpt>
      <trkpt lat="44.51872" lon="3.48307">
        <ele>707</ele>
        <time>2016-04-26T09:36:13Z</time>
      </trkpt>
      <trkpt lat="44.51873" lon="3.48314">
        <ele>707</ele>
        <time>2016-04-26T09:36:17Z</time>
      </trkpt>
      <trkpt lat="44.51876" lon="3.48334">
        <ele>708</ele>
        <time>2016-04-26T09:36:30Z</time>
      </trkpt>
      <trkpt lat="44.51876" lon="3.48341">
        <ele>708</ele>
        <time>2016-04-26T09:36:34Z</time>
      </trkpt>
      <trkpt lat="44.51872" lon="3.48354">
        <ele>708</ele>
        <time>2016-04-26T09:36:42Z</time>
      </trkpt>
      <trkpt lat="44.51871" lon="3.48361">
        <ele>708</ele>
        <time>2016-04-26T09:36:47Z</time>
      </trkpt>
      <trkpt lat="44.51874" lon="3.48366">
        <ele>708</ele>
        <time>2016-04-26T09:36:51Z</time>
      </trkpt>
      <trkpt lat="44.51877" lon="3.48371">
        <ele>709</ele>
        <time>2016-04-26T09:36:55Z</time>
      </trkpt>
      <trkpt lat="44.51872" lon="3.48374">
        <ele>710</ele>
        <time>2016-04-26T09:37:19Z</time>
      </trkpt>
      <trkpt lat="44.51869" lon="3.48384">
        <ele>709</ele>
        <time>2016-04-26T09:37:29Z</time>
      </trkpt>
      <trkpt lat="44.5187" lon="3.48383">
        <ele>710</ele>
        <time>2016-04-26T09:47:18Z</time>
      </trkpt>
      <trkpt lat="44.51867" lon="3.48391">
        <ele>710</ele>
        <time>2016-04-26T09:47:31Z</time>
      </trkpt>
      <trkpt lat="44.5187" lon="3.48404">
        <ele>710</ele>
        <time>2016-04-26T09:47:44Z</time>
      </trkpt>
      <trkpt lat="44.51869" lon="3.48412">
        <ele>710</ele>
        <time>2016-04-26T09:47:49Z</time>
      </trkpt>
      <trkpt lat="44.51866" lon="3.48418">
        <ele>709</ele>
        <time>2016-04-26T09:47:53Z</time>
      </trkpt>
      <trkpt lat="44.51862" lon="3.48438">
        <ele>712</ele>
        <time>2016-04-26T09:48:07Z</time>
      </trkpt>
      <trkpt lat="44.51857" lon="3.48448">
        <ele>711</ele>
        <time>2016-04-26T09:48:15Z</time>
      </trkpt>
      <trkpt lat="44.51853" lon="3.48454">
        <ele>711</ele>
        <time>2016-04-26T09:48:20Z</time>
      </trkpt>
      <trkpt lat="44.51845" lon="3.48471">
        <ele>713</ele>
        <time>2016-04-26T09:48:34Z</time>
      </trkpt>
      <trkpt lat="44.51835" lon="3.48488">
        <ele>713</ele>
        <time>2016-04-26T09:48:48Z</time>
      </trkpt>
      <trkpt lat="44.51831" lon="3.48493">
        <ele>712</ele>
        <time>2016-04-26T09:48:52Z</time>
      </trkpt>
      <trkpt lat="44.51809" lon="3.48517">
        <ele>708</ele>
        <time>2016-04-26T09:49:12Z</time>
      </trkpt>
      <trkpt lat="44.51802" lon="3.48526">
        <ele>708</ele>
        <time>2016-04-26T09:49:20Z</time>
      </trkpt>
      <trkpt lat="44.51798" lon="3.4853">
        <ele>708</ele>
        <time>2016-04-26T09:49:24Z</time>
      </trkpt>
      <trkpt lat="44.51786" lon="3.48543">
        <ele>708</ele>
        <time>2016-04-26T09:49:37Z</time>
      </trkpt>
      <trkpt lat="44.51782" lon="3.48548">
        <ele>708</ele>
        <time>2016-04-26T09:49:42Z</time>
      </trkpt>
      <trkpt lat="44.51779" lon="3.48554">
        <ele>709</ele>
        <time>2016-04-26T09:49:48Z</time>
      </trkpt>
      <trkpt lat="44.51771" lon="3.48561">
        <ele>709</ele>
        <time>2016-04-26T09:49:56Z</time>
      </trkpt>
      <trkpt lat="44.51762" lon="3.48567">
        <ele>709</ele>
        <time>2016-04-26T09:50:03Z</time>
      </trkpt>
      <trkpt lat="44.5175" lon="3.48581">
        <ele>711</ele>
        <time>2016-04-26T09:50:17Z</time>
      </trkpt>
      <trkpt lat="44.51728" lon="3.48611">
        <ele>709</ele>
        <time>2016-04-26T09:50:42Z</time>
      </trkpt>
      <trkpt lat="44.51724" lon="3.48624">
        <ele>710</ele>
        <time>2016-04-26T09:50:51Z</time>
      </trkpt>
      <trkpt lat="44.51712" lon="3.48664">
        <ele>711</ele>
        <time>2016-04-26T09:51:17Z</time>
      </trkpt>
      <trkpt lat="44.51711" lon="3.48671">
        <ele>710</ele>
        <time>2016-04-26T09:51:21Z</time>
      </trkpt>
      <trkpt lat="44.51708" lon="3.48683">
        <ele>710</ele>
        <time>2016-04-26T09:51:29Z</time>
      </trkpt>
      <trkpt lat="44.51704" lon="3.48698">
        <ele>710</ele>
        <time>2016-04-26T09:51:39Z</time>
      </trkpt>
      <trkpt lat="44.51703" lon="3.48705">
        <ele>710</ele>
        <time>2016-04-26T09:51:44Z</time>
      </trkpt>
      <trkpt lat="44.51702" lon="3.48719">
        <ele>710</ele>
        <time>2016-04-26T09:51:55Z</time>
      </trkpt>
      <trkpt lat="44.51704" lon="3.48726">
        <ele>711</ele>
        <time>2016-04-26T09:52:00Z</time>
      </trkpt>
      <trkpt lat="44.51706" lon="3.48739">
        <ele>711</ele>
        <time>2016-04-26T09:52:09Z</time>
      </trkpt>
      <trkpt lat="44.51711" lon="3.48759">
        <ele>711</ele>
        <time>2016-04-26T09:52:24Z</time>
      </trkpt>
      <trkpt lat="44.51713" lon="3.48765">
        <ele>711</ele>
        <time>2016-04-26T09:52:29Z</time>
      </trkpt>
      <trkpt lat="44.51721" lon="3.48774">
        <ele>712</ele>
        <time>2016-04-26T09:52:39Z</time>
      </trkpt>
      <trkpt lat="44.51723" lon="3.48779">
        <ele>713</ele>
        <time>2016-04-26T09:52:45Z</time>
      </trkpt>
      <trkpt lat="44.51728" lon="3.48784">
        <ele>713</ele>
        <time>2016-04-26T09:52:51Z</time>
      </trkpt>
      <trkpt lat="44.51734" lon="3.48795">
        <ele>713</ele>
        <time>2016-04-26T09:53:03Z</time>
      </trkpt>
      <trkpt lat="44.51753" lon="3.48813">
        <ele>714</ele>
        <time>2016-04-26T09:53:28Z</time>
      </trkpt>
      <trkpt lat="44.51757" lon="3.48819">
        <ele>714</ele>
        <time>2016-04-26T09:53:36Z</time>
      </trkpt>
      <trkpt lat="44.51759" lon="3.48824">
        <ele>713</ele>
        <time>2016-04-26T09:53:40Z</time>
      </trkpt>
      <trkpt lat="44.51758" lon="3.48844">
        <ele>713</ele>
        <time>2016-04-26T09:53:53Z</time>
      </trkpt>
      <trkpt lat="44.51757" lon="3.48852">
        <ele>714</ele>
        <time>2016-04-26T09:53:58Z</time>
      </trkpt>
      <trkpt lat="44.51756" lon="3.4886">
        <ele>713</ele>
        <time>2016-04-26T09:54:03Z</time>
      </trkpt>
      <trkpt lat="44.51755" lon="3.48874">
        <ele>712</ele>
        <time>2016-04-26T09:54:11Z</time>
      </trkpt>
      <trkpt lat="44.51754" lon="3.48895">
        <ele>712</ele>
        <time>2016-04-26T09:54:23Z</time>
      </trkpt>
      <trkpt lat="44.51752" lon="3.48909">
        <ele>710</ele>
        <time>2016-04-26T09:54:36Z</time>
      </trkpt>
      <trkpt lat="44.51759" lon="3.48962">
        <ele>714</ele>
        <time>2016-04-26T09:55:08Z</time>
      </trkpt>
      <trkpt lat="44.51768" lon="3.48994">
        <ele>717</ele>
        <time>2016-04-26T09:55:28Z</time>
      </trkpt>
      <trkpt lat="44.51769" lon="3.49">
        <ele>717</ele>
        <time>2016-04-26T09:55:33Z</time>
      </trkpt>
      <trkpt lat="44.51775" lon="3.49029">
        <ele>714</ele>
        <time>2016-04-26T09:55:52Z</time>
      </trkpt>
      <trkpt lat="44.51777" lon="3.49036">
        <ele>714</ele>
        <time>2016-04-26T09:55:56Z</time>
      </trkpt>
      <trkpt lat="44.51778" lon="3.49042">
        <ele>715</ele>
        <time>2016-04-26T09:56:00Z</time>
      </trkpt>
      <trkpt lat="44.5178" lon="3.49063">
        <ele>714</ele>
        <time>2016-04-26T09:56:12Z</time>
      </trkpt>
      <trkpt lat="44.51786" lon="3.49082">
        <ele>714</ele>
        <time>2016-04-26T09:56:24Z</time>
      </trkpt>
      <trkpt lat="44.51791" lon="3.49101">
        <ele>715</ele>
        <time>2016-04-26T09:56:36Z</time>
      </trkpt>
      <trkpt lat="44.51794" lon="3.49114">
        <ele>714</ele>
        <time>2016-04-26T09:56:44Z</time>
      </trkpt>
      <trkpt lat="44.518" lon="3.49125">
        <ele>714</ele>
        <time>2016-04-26T09:56:52Z</time>
      </trkpt>
      <trkpt lat="44.518" lon="3.49131">
        <ele>714</ele>
        <time>2016-04-26T09:56:56Z</time>
      </trkpt>
      <trkpt lat="44.51799" lon="3.49139">
        <ele>714</ele>
        <time>2016-04-26T09:57:01Z</time>
      </trkpt>
      <trkpt lat="44.51791" lon="3.4915">
        <ele>715</ele>
        <time>2016-04-26T09:57:10Z</time>
      </trkpt>
      <trkpt lat="44.51788" lon="3.49157">
        <ele>715</ele>
        <time>2016-04-26T09:57:14Z</time>
      </trkpt>
      <trkpt lat="44.51788" lon="3.49164">
        <ele>716</ele>
        <time>2016-04-26T09:57:18Z</time>
      </trkpt>
      <trkpt lat="44.51789" lon="3.49171">
        <ele>718</ele>
        <time>2016-04-26T09:57:23Z</time>
      </trkpt>
      <trkpt lat="44.51797" lon="3.49189">
        <ele>718</ele>
        <time>2016-04-26T09:57:39Z</time>
      </trkpt>
      <trkpt lat="44.518" lon="3.49194">
        <ele>718</ele>
        <time>2016-04-26T09:57:44Z</time>
      </trkpt>
      <trkpt lat="44.51803" lon="3.49209">
        <ele>715</ele>
        <time>2016-04-26T09:57:52Z</time>
      </trkpt>
      <trkpt lat="44.51804" lon="3.49222">
        <ele>715</ele>
        <time>2016-04-26T09:58:00Z</time>
      </trkpt>
      <trkpt lat="44.51806" lon="3.49237">
        <ele>715</ele>
        <time>2016-04-26T09:58:10Z</time>
      </trkpt>
      <trkpt lat="44.51814" lon="3.49255">
        <ele>717</ele>
        <time>2016-04-26T09:58:23Z</time>
      </trkpt>
      <trkpt lat="44.51816" lon="3.49262">
        <ele>717</ele>
        <time>2016-04-26T09:58:28Z</time>
      </trkpt>
      <trkpt lat="44.51819" lon="3.49275">
        <ele>717</ele>
        <time>2016-04-26T09:58:37Z</time>
      </trkpt>
      <trkpt lat="44.51818" lon="3.49282">
        <ele>716</ele>
        <time>2016-04-26T09:58:41Z</time>
      </trkpt>
      <trkpt lat="44.51817" lon="3.49289">
        <ele>717</ele>
        <time>2016-04-26T09:58:46Z</time>
      </trkpt>
      <trkpt lat="44.51817" lon="3.49295">
        <ele>717</ele>
        <time>2016-04-26T09:58:51Z</time>
      </trkpt>
      <trkpt lat="44.51817" lon="3.49309">
        <ele>718</ele>
        <time>2016-04-26T09:59:01Z</time>
      </trkpt>
      <trkpt lat="44.51816" lon="3.49316">
        <ele>718</ele>
        <time>2016-04-26T09:59:05Z</time>
      </trkpt>
      <trkpt lat="44.51817" lon="3.4933">
        <ele>719</ele>
        <time>2016-04-26T09:59:13Z</time>
      </trkpt>
      <trkpt lat="44.51817" lon="3.49336">
        <ele>720</ele>
        <time>2016-04-26T09:59:18Z</time>
      </trkpt>
      <trkpt lat="44.5182" lon="3.49342">
        <ele>720</ele>
        <time>2016-04-26T09:59:22Z</time>
      </trkpt>
      <trkpt lat="44.51821" lon="3.49364">
        <ele>722</ele>
        <time>2016-04-26T09:59:35Z</time>
      </trkpt>
      <trkpt lat="44.5182" lon="3.49383">
        <ele>721</ele>
        <time>2016-04-26T09:59:47Z</time>
      </trkpt>
      <trkpt lat="44.51817" lon="3.49397">
        <ele>721</ele>
        <time>2016-04-26T09:59:56Z</time>
      </trkpt>
      <trkpt lat="44.51816" lon="3.49417">
        <ele>726</ele>
        <time>2016-04-26T10:00:08Z</time>
      </trkpt>
      <trkpt lat="44.5181" lon="3.49418">
        <ele>725</ele>
        <time>2016-04-26T10:00:12Z</time>
      </trkpt>
      <trkpt lat="44.51805" lon="3.4942">
        <ele>724</ele>
        <time>2016-04-26T10:00:16Z</time>
      </trkpt>
      <trkpt lat="44.51802" lon="3.49424">
        <ele>724</ele>
        <time>2016-04-26T10:00:22Z</time>
      </trkpt>
      <trkpt lat="44.51806" lon="3.49427">
        <ele>726</ele>
        <time>2016-04-26T10:00:28Z</time>
      </trkpt>
      <trkpt lat="44.51809" lon="3.4944">
        <ele>727</ele>
        <time>2016-04-26T10:00:38Z</time>
      </trkpt>
      <trkpt lat="44.51817" lon="3.49449">
        <ele>726</ele>
        <time>2016-04-26T10:00:47Z</time>
      </trkpt>
      <trkpt lat="44.51814" lon="3.49455">
        <ele>726</ele>
        <time>2016-04-26T10:00:52Z</time>
      </trkpt>
      <trkpt lat="44.51811" lon="3.49461">
        <ele>725</ele>
        <time>2016-04-26T10:00:57Z</time>
      </trkpt>
      <trkpt lat="44.51813" lon="3.49469">
        <ele>726</ele>
        <time>2016-04-26T10:01:02Z</time>
      </trkpt>
      <trkpt lat="44.51816" lon="3.49475">
        <ele>727</ele>
        <time>2016-04-26T10:01:07Z</time>
      </trkpt>
      <trkpt lat="44.51816" lon="3.49481">
        <ele>727</ele>
        <time>2016-04-26T10:01:11Z</time>
      </trkpt>
      <trkpt lat="44.51815" lon="3.49488">
        <ele>727</ele>
        <time>2016-04-26T10:01:16Z</time>
      </trkpt>
      <trkpt lat="44.51813" lon="3.49496">
        <ele>727</ele>
        <time>2016-04-26T10:01:21Z</time>
      </trkpt>
      <trkpt lat="44.51806" lon="3.49506">
        <ele>725</ele>
        <time>2016-04-26T10:01:28Z</time>
      </trkpt>
      <trkpt lat="44.51803" lon="3.49512">
        <ele>725</ele>
        <time>2016-04-26T10:01:32Z</time>
      </trkpt>
      <trkpt lat="44.51802" lon="3.4952">
        <ele>725</ele>
        <time>2016-04-26T10:01:36Z</time>
      </trkpt>
      <trkpt lat="44.51798" lon="3.49525">
        <ele>725</ele>
        <time>2016-04-26T10:01:40Z</time>
      </trkpt>
      <trkpt lat="44.51795" lon="3.49531">
        <ele>727</ele>
        <time>2016-04-26T10:01:44Z</time>
      </trkpt>
      <trkpt lat="44.51795" lon="3.49538">
        <ele>727</ele>
        <time>2016-04-26T10:01:49Z</time>
      </trkpt>
      <trkpt lat="44.51794" lon="3.49545">
        <ele>726</ele>
        <time>2016-04-26T10:01:53Z</time>
      </trkpt>
      <trkpt lat="44.51792" lon="3.49552">
        <ele>726</ele>
        <time>2016-04-26T10:01:58Z</time>
      </trkpt>
      <trkpt lat="44.51787" lon="3.49555">
        <ele>726</ele>
        <time>2016-04-26T10:02:02Z</time>
      </trkpt>
      <trkpt lat="44.51785" lon="3.4956">
        <ele>726</ele>
        <time>2016-04-26T10:02:05Z</time>
      </trkpt>
      <trkpt lat="44.5178" lon="3.49572">
        <ele>727</ele>
        <time>2016-04-26T10:02:13Z</time>
      </trkpt>
      <trkpt lat="44.51776" lon="3.49585">
        <ele>730</ele>
        <time>2016-04-26T10:02:22Z</time>
      </trkpt>
      <trkpt lat="44.51775" lon="3.49592">
        <ele>729</ele>
        <time>2016-04-26T10:02:27Z</time>
      </trkpt>
      <trkpt lat="44.51773" lon="3.4962">
        <ele>733</ele>
        <time>2016-04-26T10:02:45Z</time>
      </trkpt>
      <trkpt lat="44.51768" lon="3.49633">
        <ele>732</ele>
        <time>2016-04-26T10:02:52Z</time>
      </trkpt>
      <trkpt lat="44.51765" lon="3.49639">
        <ele>733</ele>
        <time>2016-04-26T10:02:56Z</time>
      </trkpt>
      <trkpt lat="44.51762" lon="3.49645">
        <ele>733</ele>
        <time>2016-04-26T10:03:01Z</time>
      </trkpt>
      <trkpt lat="44.51761" lon="3.49652">
        <ele>732</ele>
        <time>2016-04-26T10:03:06Z</time>
      </trkpt>
      <trkpt lat="44.51764" lon="3.49658">
        <ele>733</ele>
        <time>2016-04-26T10:03:10Z</time>
      </trkpt>
      <trkpt lat="44.51765" lon="3.49665">
        <ele>734</ele>
        <time>2016-04-26T10:03:14Z</time>
      </trkpt>
      <trkpt lat="44.51764" lon="3.49671">
        <ele>734</ele>
        <time>2016-04-26T10:03:20Z</time>
      </trkpt>
      <trkpt lat="44.51757" lon="3.49674">
        <ele>733</ele>
        <time>2016-04-26T10:03:34Z</time>
      </trkpt>
      <trkpt lat="44.51746" lon="3.49688">
        <ele>736</ele>
        <time>2016-04-26T10:03:45Z</time>
      </trkpt>
      <trkpt lat="44.51732" lon="3.49703">
        <ele>732</ele>
        <time>2016-04-26T10:04:05Z</time>
      </trkpt>
      <trkpt lat="44.51732" lon="3.49706">
        <ele>731</ele>
        <time>2016-04-26T10:04:29Z</time>
      </trkpt>
      <trkpt lat="44.51727" lon="3.49715">
        <ele>734</ele>
        <time>2016-04-26T10:04:51Z</time>
      </trkpt>
      <trkpt lat="44.5173" lon="3.49723">
        <ele>736</ele>
        <time>2016-04-26T10:05:04Z</time>
      </trkpt>
      <trkpt lat="44.51732" lon="3.49729">
        <ele>736</ele>
        <time>2016-04-26T10:05:09Z</time>
      </trkpt>
      <trkpt lat="44.5173" lon="3.49743">
        <ele>735</ele>
        <time>2016-04-26T10:05:17Z</time>
      </trkpt>
      <trkpt lat="44.5173" lon="3.4975">
        <ele>734</ele>
        <time>2016-04-26T10:05:21Z</time>
      </trkpt>
      <trkpt lat="44.51734" lon="3.49763">
        <ele>733</ele>
        <time>2016-04-26T10:05:30Z</time>
      </trkpt>
      <trkpt lat="44.51739" lon="3.49762">
        <ele>733</ele>
        <time>2016-04-26T10:05:35Z</time>
      </trkpt>
      <trkpt lat="44.51753" lon="3.49761">
        <ele>733</ele>
        <time>2016-04-26T10:05:56Z</time>
      </trkpt>
      <trkpt lat="44.51757" lon="3.49756">
        <ele>733</ele>
        <time>2016-04-26T10:06:04Z</time>
      </trkpt>
      <trkpt lat="44.51753" lon="3.49769">
        <ele>733</ele>
        <time>2016-04-26T10:06:12Z</time>
      </trkpt>
      <trkpt lat="44.51747" lon="3.49761">
        <ele>732</ele>
        <time>2016-04-26T10:10:26Z</time>
      </trkpt>
      <trkpt lat="44.51742" lon="3.49771">
        <ele>732</ele>
        <time>2016-04-26T10:10:39Z</time>
      </trkpt>
      <trkpt lat="44.51735" lon="3.49795">
        <ele>734</ele>
        <time>2016-04-26T10:11:10Z</time>
      </trkpt>
      <trkpt lat="44.51733" lon="3.49804">
        <ele>734</ele>
        <time>2016-04-26T10:13:15Z</time>
      </trkpt>
      <trkpt lat="44.51736" lon="3.49805">
        <ele>734</ele>
        <time>2016-04-26T10:14:17Z</time>
      </trkpt>
      <trkpt lat="44.51742" lon="3.49804">
        <ele>734</ele>
        <time>2016-04-26T10:16:08Z</time>
      </trkpt>
      <trkpt lat="44.51732" lon="3.49821">
        <ele>734</ele>
        <time>2016-04-26T10:16:22Z</time>
      </trkpt>
      <trkpt lat="44.51721" lon="3.49834">
        <ele>734</ele>
        <time>2016-04-26T10:16:26Z</time>
      </trkpt>
    </trkseg>
  </trk>
</gpx>